<?xml version="1.0" encoding="UTF-8" ?>
<gpx version="1.1" xmlns:xsi="http://www.w3.org/2001/XMLSchema-instance"
    xmlns="http://www.topografix.com/GPX/1/1"
    xsi:schemaLocation="http://www.topografix.com/GPX/1/1 http://www.topografix.com/GPX/1/1/gpx.xsd"
    creator="Openrunner - https://www.openrunner.com" >	<trk>
	                   <name>Boucle cyclotouristique - Chambost Longessaigne-21424199</name>
						<trkseg>
					<trkpt lat="45.773530" lon="4.366980">
						<ele>547</ele>
						<time>2026-04-15T09:34:12Z</time>
					</trkpt>
					<trkpt lat="45.773500" lon="4.367010">
						<ele>546</ele>
						<time>2026-04-15T09:34:13Z</time>
					</trkpt>
					<trkpt lat="45.773370" lon="4.367150">
						<ele>545</ele>
						<time>2026-04-15T09:34:16Z</time>
					</trkpt>
					<trkpt lat="45.773220" lon="4.367160">
						<ele>543</ele>
						<time>2026-04-15T09:34:18Z</time>
					</trkpt>
					<trkpt lat="45.773080" lon="4.367560">
						<ele>542</ele>
						<time>2026-04-15T09:34:24Z</time>
					</trkpt>
					<trkpt lat="45.772880" lon="4.368040">
						<ele>544</ele>
						<time>2026-04-15T09:34:31Z</time>
					</trkpt>
					<trkpt lat="45.772830" lon="4.368190">
						<ele>545</ele>
						<time>2026-04-15T09:34:33Z</time>
					</trkpt>
					<trkpt lat="45.772890" lon="4.368170">
						<ele>545</ele>
						<time>2026-04-15T09:34:34Z</time>
					</trkpt>
					<trkpt lat="45.772930" lon="4.368160">
						<ele>546</ele>
						<time>2026-04-15T09:34:35Z</time>
					</trkpt>
					<trkpt lat="45.773130" lon="4.368520">
						<ele>550</ele>
						<time>2026-04-15T09:34:40Z</time>
					</trkpt>
					<trkpt lat="45.773190" lon="4.368730">
						<ele>551</ele>
						<time>2026-04-15T09:34:43Z</time>
					</trkpt>
					<trkpt lat="45.773200" lon="4.368760">
						<ele>551</ele>
						<time>2026-04-15T09:34:44Z</time>
					</trkpt>
					<trkpt lat="45.773280" lon="4.368880">
						<ele>552</ele>
						<time>2026-04-15T09:34:46Z</time>
					</trkpt>
					<trkpt lat="45.773700" lon="4.369120">
						<ele>556</ele>
						<time>2026-04-15T09:34:54Z</time>
					</trkpt>
					<trkpt lat="45.773730" lon="4.369130">
						<ele>557</ele>
						<time>2026-04-15T09:34:54Z</time>
					</trkpt>
					<trkpt lat="45.773700" lon="4.369120">
						<ele>556</ele>
						<time>2026-04-15T09:34:55Z</time>
					</trkpt>
					<trkpt lat="45.773670" lon="4.369550">
						<ele>556</ele>
						<time>2026-04-15T09:35:00Z</time>
					</trkpt>
					<trkpt lat="45.773670" lon="4.370010">
						<ele>555</ele>
						<time>2026-04-15T09:35:06Z</time>
					</trkpt>
					<trkpt lat="45.773700" lon="4.370310">
						<ele>553</ele>
						<time>2026-04-15T09:35:10Z</time>
					</trkpt>
					<trkpt lat="45.773820" lon="4.370600">
						<ele>553</ele>
						<time>2026-04-15T09:35:14Z</time>
					</trkpt>
					<trkpt lat="45.773880" lon="4.370650">
						<ele>553</ele>
						<time>2026-04-15T09:35:15Z</time>
					</trkpt>
					<trkpt lat="45.773990" lon="4.370750">
						<ele>554</ele>
						<time>2026-04-15T09:35:17Z</time>
					</trkpt>
					<trkpt lat="45.774040" lon="4.370770">
						<ele>554</ele>
						<time>2026-04-15T09:35:18Z</time>
					</trkpt>
					<trkpt lat="45.774250" lon="4.370820">
						<ele>555</ele>
						<time>2026-04-15T09:35:22Z</time>
					</trkpt>
					<trkpt lat="45.774500" lon="4.370750">
						<ele>556</ele>
						<time>2026-04-15T09:35:27Z</time>
					</trkpt>
					<trkpt lat="45.775770" lon="4.370340">
						<ele>563</ele>
						<time>2026-04-15T09:35:50Z</time>
					</trkpt>
					<trkpt lat="45.776020" lon="4.370350">
						<ele>564</ele>
						<time>2026-04-15T09:35:54Z</time>
					</trkpt>
					<trkpt lat="45.776280" lon="4.370480">
						<ele>564</ele>
						<time>2026-04-15T09:35:59Z</time>
					</trkpt>
					<trkpt lat="45.776440" lon="4.370650">
						<ele>562</ele>
						<time>2026-04-15T09:36:03Z</time>
					</trkpt>
					<trkpt lat="45.776570" lon="4.370820">
						<ele>560</ele>
						<time>2026-04-15T09:36:06Z</time>
					</trkpt>
					<trkpt lat="45.777540" lon="4.372070">
						<ele>562</ele>
						<time>2026-04-15T09:36:29Z</time>
					</trkpt>
					<trkpt lat="45.778040" lon="4.372840">
						<ele>564</ele>
						<time>2026-04-15T09:36:42Z</time>
					</trkpt>
					<trkpt lat="45.778450" lon="4.373490">
						<ele>564</ele>
						<time>2026-04-15T09:36:53Z</time>
					</trkpt>
					<trkpt lat="45.778470" lon="4.373550">
						<ele>564</ele>
						<time>2026-04-15T09:36:54Z</time>
					</trkpt>
					<trkpt lat="45.778530" lon="4.373730">
						<ele>564</ele>
						<time>2026-04-15T09:36:56Z</time>
					</trkpt>
					<trkpt lat="45.778550" lon="4.373780">
						<ele>564</ele>
						<time>2026-04-15T09:36:57Z</time>
					</trkpt>
					<trkpt lat="45.778560" lon="4.374350">
						<ele>565</ele>
						<time>2026-04-15T09:37:04Z</time>
					</trkpt>
					<trkpt lat="45.778720" lon="4.375030">
						<ele>567</ele>
						<time>2026-04-15T09:37:13Z</time>
					</trkpt>
					<trkpt lat="45.778840" lon="4.375350">
						<ele>569</ele>
						<time>2026-04-15T09:37:17Z</time>
					</trkpt>
					<trkpt lat="45.778880" lon="4.375460">
						<ele>570</ele>
						<time>2026-04-15T09:37:19Z</time>
					</trkpt>
					<trkpt lat="45.779000" lon="4.375610">
						<ele>571</ele>
						<time>2026-04-15T09:37:22Z</time>
					</trkpt>
					<trkpt lat="45.779340" lon="4.375820">
						<ele>569</ele>
						<time>2026-04-15T09:37:28Z</time>
					</trkpt>
					<trkpt lat="45.779430" lon="4.375980">
						<ele>569</ele>
						<time>2026-04-15T09:37:31Z</time>
					</trkpt>
					<trkpt lat="45.779480" lon="4.376240">
						<ele>571</ele>
						<time>2026-04-15T09:37:34Z</time>
					</trkpt>
					<trkpt lat="45.779490" lon="4.376650">
						<ele>575</ele>
						<time>2026-04-15T09:37:39Z</time>
					</trkpt>
					<trkpt lat="45.779540" lon="4.376860">
						<ele>576</ele>
						<time>2026-04-15T09:37:42Z</time>
					</trkpt>
					<trkpt lat="45.779630" lon="4.377090">
						<ele>576</ele>
						<time>2026-04-15T09:37:45Z</time>
					</trkpt>
					<trkpt lat="45.779900" lon="4.377540">
						<ele>576</ele>
						<time>2026-04-15T09:37:53Z</time>
					</trkpt>
					<trkpt lat="45.779950" lon="4.377820">
						<ele>578</ele>
						<time>2026-04-15T09:37:56Z</time>
					</trkpt>
					<trkpt lat="45.779960" lon="4.378720">
						<ele>583</ele>
						<time>2026-04-15T09:38:07Z</time>
					</trkpt>
					<trkpt lat="45.780000" lon="4.379010">
						<ele>583</ele>
						<time>2026-04-15T09:38:11Z</time>
					</trkpt>
					<trkpt lat="45.780070" lon="4.379200">
						<ele>582</ele>
						<time>2026-04-15T09:38:14Z</time>
					</trkpt>
					<trkpt lat="45.780120" lon="4.379320">
						<ele>582</ele>
						<time>2026-04-15T09:38:16Z</time>
					</trkpt>
					<trkpt lat="45.780440" lon="4.379920">
						<ele>583</ele>
						<time>2026-04-15T09:38:25Z</time>
					</trkpt>
					<trkpt lat="45.781170" lon="4.381960">
						<ele>584</ele>
						<time>2026-04-15T09:38:53Z</time>
					</trkpt>
					<trkpt lat="45.781200" lon="4.382150">
						<ele>584</ele>
						<time>2026-04-15T09:38:56Z</time>
					</trkpt>
					<trkpt lat="45.781240" lon="4.382410">
						<ele>585</ele>
						<time>2026-04-15T09:38:59Z</time>
					</trkpt>
					<trkpt lat="45.781250" lon="4.383070">
						<ele>587</ele>
						<time>2026-04-15T09:39:07Z</time>
					</trkpt>
					<trkpt lat="45.781200" lon="4.383520">
						<ele>588</ele>
						<time>2026-04-15T09:39:13Z</time>
					</trkpt>
					<trkpt lat="45.781160" lon="4.383680">
						<ele>589</ele>
						<time>2026-04-15T09:39:15Z</time>
					</trkpt>
					<trkpt lat="45.781100" lon="4.383890">
						<ele>590</ele>
						<time>2026-04-15T09:39:18Z</time>
					</trkpt>
					<trkpt lat="45.781020" lon="4.384100">
						<ele>590</ele>
						<time>2026-04-15T09:39:21Z</time>
					</trkpt>
					<trkpt lat="45.780880" lon="4.384460">
						<ele>591</ele>
						<time>2026-04-15T09:39:26Z</time>
					</trkpt>
					<trkpt lat="45.780790" lon="4.384740">
						<ele>590</ele>
						<time>2026-04-15T09:39:30Z</time>
					</trkpt>
					<trkpt lat="45.780780" lon="4.385110">
						<ele>591</ele>
						<time>2026-04-15T09:39:34Z</time>
					</trkpt>
					<trkpt lat="45.780780" lon="4.385160">
						<ele>591</ele>
						<time>2026-04-15T09:39:35Z</time>
					</trkpt>
					<trkpt lat="45.780840" lon="4.385470">
						<ele>591</ele>
						<time>2026-04-15T09:39:39Z</time>
					</trkpt>
					<trkpt lat="45.780970" lon="4.385780">
						<ele>591</ele>
						<time>2026-04-15T09:39:43Z</time>
					</trkpt>
					<trkpt lat="45.781130" lon="4.386020">
						<ele>592</ele>
						<time>2026-04-15T09:39:48Z</time>
					</trkpt>
					<trkpt lat="45.781310" lon="4.386150">
						<ele>592</ele>
						<time>2026-04-15T09:39:51Z</time>
					</trkpt>
					<trkpt lat="45.781490" lon="4.386220">
						<ele>594</ele>
						<time>2026-04-15T09:39:54Z</time>
					</trkpt>
					<trkpt lat="45.781770" lon="4.386250">
						<ele>595</ele>
						<time>2026-04-15T09:39:59Z</time>
					</trkpt>
					<trkpt lat="45.783010" lon="4.386230">
						<ele>595</ele>
						<time>2026-04-15T09:40:22Z</time>
					</trkpt>
					<trkpt lat="45.783240" lon="4.386300">
						<ele>594</ele>
						<time>2026-04-15T09:40:26Z</time>
					</trkpt>
					<trkpt lat="45.783260" lon="4.386310">
						<ele>594</ele>
						<time>2026-04-15T09:40:26Z</time>
					</trkpt>
					<trkpt lat="45.783460" lon="4.386510">
						<ele>591</ele>
						<time>2026-04-15T09:40:30Z</time>
					</trkpt>
					<trkpt lat="45.783630" lon="4.386730">
						<ele>589</ele>
						<time>2026-04-15T09:40:35Z</time>
					</trkpt>
					<trkpt lat="45.783790" lon="4.386940">
						<ele>589</ele>
						<time>2026-04-15T09:40:38Z</time>
					</trkpt>
					<trkpt lat="45.783990" lon="4.387270">
						<ele>589</ele>
						<time>2026-04-15T09:40:44Z</time>
					</trkpt>
					<trkpt lat="45.784420" lon="4.388210">
						<ele>588</ele>
						<time>2026-04-15T09:40:58Z</time>
					</trkpt>
					<trkpt lat="45.784690" lon="4.388760">
						<ele>587</ele>
						<time>2026-04-15T09:41:06Z</time>
					</trkpt>
					<trkpt lat="45.784990" lon="4.389050">
						<ele>587</ele>
						<time>2026-04-15T09:41:13Z</time>
					</trkpt>
					<trkpt lat="45.785620" lon="4.389490">
						<ele>591</ele>
						<time>2026-04-15T09:41:25Z</time>
					</trkpt>
					<trkpt lat="45.785880" lon="4.389560">
						<ele>593</ele>
						<time>2026-04-15T09:41:30Z</time>
					</trkpt>
					<trkpt lat="45.786120" lon="4.389550">
						<ele>595</ele>
						<time>2026-04-15T09:41:34Z</time>
					</trkpt>
					<trkpt lat="45.787030" lon="4.389380">
						<ele>598</ele>
						<time>2026-04-15T09:41:50Z</time>
					</trkpt>
					<trkpt lat="45.787320" lon="4.389330">
						<ele>599</ele>
						<time>2026-04-15T09:41:56Z</time>
					</trkpt>
					<trkpt lat="45.787630" lon="4.389420">
						<ele>601</ele>
						<time>2026-04-15T09:42:01Z</time>
					</trkpt>
					<trkpt lat="45.787980" lon="4.389560">
						<ele>604</ele>
						<time>2026-04-15T09:42:08Z</time>
					</trkpt>
					<trkpt lat="45.788150" lon="4.389560">
						<ele>605</ele>
						<time>2026-04-15T09:42:11Z</time>
					</trkpt>
					<trkpt lat="45.789040" lon="4.389520">
						<ele>605</ele>
						<time>2026-04-15T09:42:26Z</time>
					</trkpt>
					<trkpt lat="45.789300" lon="4.389570">
						<ele>606</ele>
						<time>2026-04-15T09:42:31Z</time>
					</trkpt>
					<trkpt lat="45.789600" lon="4.389770">
						<ele>608</ele>
						<time>2026-04-15T09:42:37Z</time>
					</trkpt>
					<trkpt lat="45.790020" lon="4.390200">
						<ele>608</ele>
						<time>2026-04-15T09:42:46Z</time>
					</trkpt>
					<trkpt lat="45.790120" lon="4.390260">
						<ele>609</ele>
						<time>2026-04-15T09:42:48Z</time>
					</trkpt>
					<trkpt lat="45.790160" lon="4.390280">
						<ele>609</ele>
						<time>2026-04-15T09:42:49Z</time>
					</trkpt>
					<trkpt lat="45.790280" lon="4.390340">
						<ele>609</ele>
						<time>2026-04-15T09:42:51Z</time>
					</trkpt>
					<trkpt lat="45.790560" lon="4.390400">
						<ele>611</ele>
						<time>2026-04-15T09:42:56Z</time>
					</trkpt>
					<trkpt lat="45.792120" lon="4.390500">
						<ele>619</ele>
						<time>2026-04-15T09:43:24Z</time>
					</trkpt>
					<trkpt lat="45.792820" lon="4.390560">
						<ele>623</ele>
						<time>2026-04-15T09:43:36Z</time>
					</trkpt>
					<trkpt lat="45.793450" lon="4.390470">
						<ele>626</ele>
						<time>2026-04-15T09:43:48Z</time>
					</trkpt>
					<trkpt lat="45.793660" lon="4.390530">
						<ele>626</ele>
						<time>2026-04-15T09:43:52Z</time>
					</trkpt>
					<trkpt lat="45.793690" lon="4.390550">
						<ele>626</ele>
						<time>2026-04-15T09:43:52Z</time>
					</trkpt>
					<trkpt lat="45.793980" lon="4.390730">
						<ele>629</ele>
						<time>2026-04-15T09:43:58Z</time>
					</trkpt>
					<trkpt lat="45.794260" lon="4.391010">
						<ele>630</ele>
						<time>2026-04-15T09:44:04Z</time>
					</trkpt>
					<trkpt lat="45.794490" lon="4.391330">
						<ele>631</ele>
						<time>2026-04-15T09:44:10Z</time>
					</trkpt>
					<trkpt lat="45.794990" lon="4.392090">
						<ele>636</ele>
						<time>2026-04-15T09:44:22Z</time>
					</trkpt>
					<trkpt lat="45.795280" lon="4.392330">
						<ele>638</ele>
						<time>2026-04-15T09:44:28Z</time>
					</trkpt>
					<trkpt lat="45.795880" lon="4.392610">
						<ele>638</ele>
						<time>2026-04-15T09:44:40Z</time>
					</trkpt>
					<trkpt lat="45.796170" lon="4.392780">
						<ele>639</ele>
						<time>2026-04-15T09:44:45Z</time>
					</trkpt>
					<trkpt lat="45.796360" lon="4.392890">
						<ele>640</ele>
						<time>2026-04-15T09:44:49Z</time>
					</trkpt>
					<trkpt lat="45.796510" lon="4.393030">
						<ele>641</ele>
						<time>2026-04-15T09:44:52Z</time>
					</trkpt>
					<trkpt lat="45.796640" lon="4.393140">
						<ele>642</ele>
						<time>2026-04-15T09:44:55Z</time>
					</trkpt>
					<trkpt lat="45.796770" lon="4.393380">
						<ele>643</ele>
						<time>2026-04-15T09:44:59Z</time>
					</trkpt>
					<trkpt lat="45.796830" lon="4.393680">
						<ele>644</ele>
						<time>2026-04-15T09:45:02Z</time>
					</trkpt>
					<trkpt lat="45.796890" lon="4.394170">
						<ele>646</ele>
						<time>2026-04-15T09:45:09Z</time>
					</trkpt>
					<trkpt lat="45.797010" lon="4.394440">
						<ele>649</ele>
						<time>2026-04-15T09:45:13Z</time>
					</trkpt>
					<trkpt lat="45.797200" lon="4.394630">
						<ele>650</ele>
						<time>2026-04-15T09:45:17Z</time>
					</trkpt>
					<trkpt lat="45.797430" lon="4.394720">
						<ele>651</ele>
						<time>2026-04-15T09:45:21Z</time>
					</trkpt>
					<trkpt lat="45.797960" lon="4.394810">
						<ele>651</ele>
						<time>2026-04-15T09:45:30Z</time>
					</trkpt>
					<trkpt lat="45.798190" lon="4.394940">
						<ele>653</ele>
						<time>2026-04-15T09:45:35Z</time>
					</trkpt>
					<trkpt lat="45.799070" lon="4.395770">
						<ele>657</ele>
						<time>2026-04-15T09:45:54Z</time>
					</trkpt>
					<trkpt lat="45.799330" lon="4.395920">
						<ele>658</ele>
						<time>2026-04-15T09:45:59Z</time>
					</trkpt>
					<trkpt lat="45.799380" lon="4.395940">
						<ele>658</ele>
						<time>2026-04-15T09:45:59Z</time>
					</trkpt>
					<trkpt lat="45.800440" lon="4.396420">
						<ele>661</ele>
						<time>2026-04-15T09:46:19Z</time>
					</trkpt>
					<trkpt lat="45.800760" lon="4.396460">
						<ele>663</ele>
						<time>2026-04-15T09:46:25Z</time>
					</trkpt>
					<trkpt lat="45.800780" lon="4.396460">
						<ele>663</ele>
						<time>2026-04-15T09:46:25Z</time>
					</trkpt>
					<trkpt lat="45.800760" lon="4.396460">
						<ele>663</ele>
						<time>2026-04-15T09:46:26Z</time>
					</trkpt>
					<trkpt lat="45.800780" lon="4.396610">
						<ele>663</ele>
						<time>2026-04-15T09:46:28Z</time>
					</trkpt>
					<trkpt lat="45.800810" lon="4.396660">
						<ele>664</ele>
						<time>2026-04-15T09:46:28Z</time>
					</trkpt>
					<trkpt lat="45.800820" lon="4.396680">
						<ele>664</ele>
						<time>2026-04-15T09:46:29Z</time>
					</trkpt>
					<trkpt lat="45.801560" lon="4.397100">
						<ele>671</ele>
						<time>2026-04-15T09:46:43Z</time>
					</trkpt>
					<trkpt lat="45.801800" lon="4.397240">
						<ele>673</ele>
						<time>2026-04-15T09:46:47Z</time>
					</trkpt>
					<trkpt lat="45.802090" lon="4.397340">
						<ele>677</ele>
						<time>2026-04-15T09:46:53Z</time>
					</trkpt>
					<trkpt lat="45.802220" lon="4.397400">
						<ele>678</ele>
						<time>2026-04-15T09:46:55Z</time>
					</trkpt>
					<trkpt lat="45.802460" lon="4.397610">
						<ele>681</ele>
						<time>2026-04-15T09:47:00Z</time>
					</trkpt>
					<trkpt lat="45.802790" lon="4.397840">
						<ele>684</ele>
						<time>2026-04-15T09:47:07Z</time>
					</trkpt>
					<trkpt lat="45.803320" lon="4.398250">
						<ele>692</ele>
						<time>2026-04-15T09:47:17Z</time>
					</trkpt>
					<trkpt lat="45.803400" lon="4.398320">
						<ele>693</ele>
						<time>2026-04-15T09:47:19Z</time>
					</trkpt>
					<trkpt lat="45.803480" lon="4.398540">
						<ele>695</ele>
						<time>2026-04-15T09:47:22Z</time>
					</trkpt>
					<trkpt lat="45.803880" lon="4.399690">
						<ele>704</ele>
						<time>2026-04-15T09:47:38Z</time>
					</trkpt>
					<trkpt lat="45.803870" lon="4.399700">
						<ele>704</ele>
						<time>2026-04-15T09:47:38Z</time>
					</trkpt>
					<trkpt lat="45.803880" lon="4.399690">
						<ele>704</ele>
						<time>2026-04-15T09:47:39Z</time>
					</trkpt>
					<trkpt lat="45.803970" lon="4.399950">
						<ele>706</ele>
						<time>2026-04-15T09:47:42Z</time>
					</trkpt>
					<trkpt lat="45.804080" lon="4.400200">
						<ele>708</ele>
						<time>2026-04-15T09:47:46Z</time>
					</trkpt>
					<trkpt lat="45.804180" lon="4.400360">
						<ele>709</ele>
						<time>2026-04-15T09:47:48Z</time>
					</trkpt>
					<trkpt lat="45.805000" lon="4.401240">
						<ele>715</ele>
						<time>2026-04-15T09:48:07Z</time>
					</trkpt>
					<trkpt lat="45.805260" lon="4.401590">
						<ele>716</ele>
						<time>2026-04-15T09:48:13Z</time>
					</trkpt>
					<trkpt lat="45.805490" lon="4.401930">
						<ele>719</ele>
						<time>2026-04-15T09:48:19Z</time>
					</trkpt>
					<trkpt lat="45.805680" lon="4.402180">
						<ele>722</ele>
						<time>2026-04-15T09:48:23Z</time>
					</trkpt>
					<trkpt lat="45.805730" lon="4.402230">
						<ele>722</ele>
						<time>2026-04-15T09:48:25Z</time>
					</trkpt>
					<trkpt lat="45.805880" lon="4.402370">
						<ele>724</ele>
						<time>2026-04-15T09:48:28Z</time>
					</trkpt>
					<trkpt lat="45.806250" lon="4.402620">
						<ele>726</ele>
						<time>2026-04-15T09:48:35Z</time>
					</trkpt>
					<trkpt lat="45.806430" lon="4.402730">
						<ele>727</ele>
						<time>2026-04-15T09:48:39Z</time>
					</trkpt>
					<trkpt lat="45.806550" lon="4.402850">
						<ele>729</ele>
						<time>2026-04-15T09:48:41Z</time>
					</trkpt>
					<trkpt lat="45.806660" lon="4.403050">
						<ele>731</ele>
						<time>2026-04-15T09:48:44Z</time>
					</trkpt>
					<trkpt lat="45.806720" lon="4.403270">
						<ele>733</ele>
						<time>2026-04-15T09:48:47Z</time>
					</trkpt>
					<trkpt lat="45.806740" lon="4.403540">
						<ele>734</ele>
						<time>2026-04-15T09:48:51Z</time>
					</trkpt>
					<trkpt lat="45.806690" lon="4.404230">
						<ele>737</ele>
						<time>2026-04-15T09:48:59Z</time>
					</trkpt>
					<trkpt lat="45.806610" lon="4.405020">
						<ele>740</ele>
						<time>2026-04-15T09:49:09Z</time>
					</trkpt>
					<trkpt lat="45.806570" lon="4.405290">
						<ele>739</ele>
						<time>2026-04-15T09:49:13Z</time>
					</trkpt>
					<trkpt lat="45.806470" lon="4.405760">
						<ele>740</ele>
						<time>2026-04-15T09:49:19Z</time>
					</trkpt>
					<trkpt lat="45.806410" lon="4.406060">
						<ele>741</ele>
						<time>2026-04-15T09:49:22Z</time>
					</trkpt>
					<trkpt lat="45.806420" lon="4.406220">
						<ele>740</ele>
						<time>2026-04-15T09:49:24Z</time>
					</trkpt>
					<trkpt lat="45.806480" lon="4.406510">
						<ele>739</ele>
						<time>2026-04-15T09:49:28Z</time>
					</trkpt>
					<trkpt lat="45.806640" lon="4.406900">
						<ele>736</ele>
						<time>2026-04-15T09:49:34Z</time>
					</trkpt>
					<trkpt lat="45.806960" lon="4.407410">
						<ele>734</ele>
						<time>2026-04-15T09:49:42Z</time>
					</trkpt>
					<trkpt lat="45.807620" lon="4.408360">
						<ele>734</ele>
						<time>2026-04-15T09:49:59Z</time>
					</trkpt>
					<trkpt lat="45.807730" lon="4.408470">
						<ele>734</ele>
						<time>2026-04-15T09:50:01Z</time>
					</trkpt>
					<trkpt lat="45.808090" lon="4.408710">
						<ele>734</ele>
						<time>2026-04-15T09:50:08Z</time>
					</trkpt>
					<trkpt lat="45.808070" lon="4.408730">
						<ele>734</ele>
						<time>2026-04-15T09:50:09Z</time>
					</trkpt>
					<trkpt lat="45.807970" lon="4.408830">
						<ele>734</ele>
						<time>2026-04-15T09:50:11Z</time>
					</trkpt>
					<trkpt lat="45.807880" lon="4.408990">
						<ele>734</ele>
						<time>2026-04-15T09:50:14Z</time>
					</trkpt>
					<trkpt lat="45.807830" lon="4.409170">
						<ele>734</ele>
						<time>2026-04-15T09:50:16Z</time>
					</trkpt>
					<trkpt lat="45.807840" lon="4.409270">
						<ele>733</ele>
						<time>2026-04-15T09:50:17Z</time>
					</trkpt>
					<trkpt lat="45.807740" lon="4.409290">
						<ele>733</ele>
						<time>2026-04-15T09:50:19Z</time>
					</trkpt>
					<trkpt lat="45.807490" lon="4.409470">
						<ele>730</ele>
						<time>2026-04-15T09:50:24Z</time>
					</trkpt>
					<trkpt lat="45.807050" lon="4.409910">
						<ele>723</ele>
						<time>2026-04-15T09:50:34Z</time>
					</trkpt>
					<trkpt lat="45.806930" lon="4.410080">
						<ele>721</ele>
						<time>2026-04-15T09:50:37Z</time>
					</trkpt>
					<trkpt lat="45.806790" lon="4.410190">
						<ele>719</ele>
						<time>2026-04-15T09:50:39Z</time>
					</trkpt>
					<trkpt lat="45.806660" lon="4.410300">
						<ele>718</ele>
						<time>2026-04-15T09:50:42Z</time>
					</trkpt>
					<trkpt lat="45.806210" lon="4.410860">
						<ele>713</ele>
						<time>2026-04-15T09:50:53Z</time>
					</trkpt>
					<trkpt lat="45.805880" lon="4.411180">
						<ele>708</ele>
						<time>2026-04-15T09:51:00Z</time>
					</trkpt>
					<trkpt lat="45.805610" lon="4.411320">
						<ele>707</ele>
						<time>2026-04-15T09:51:05Z</time>
					</trkpt>
					<trkpt lat="45.805030" lon="4.411590">
						<ele>704</ele>
						<time>2026-04-15T09:51:16Z</time>
					</trkpt>
					<trkpt lat="45.804840" lon="4.411670">
						<ele>704</ele>
						<time>2026-04-15T09:51:19Z</time>
					</trkpt>
					<trkpt lat="45.804450" lon="4.411830">
						<ele>705</ele>
						<time>2026-04-15T09:51:26Z</time>
					</trkpt>
					<trkpt lat="45.804350" lon="4.411890">
						<ele>705</ele>
						<time>2026-04-15T09:51:28Z</time>
					</trkpt>
					<trkpt lat="45.804000" lon="4.412240">
						<ele>701</ele>
						<time>2026-04-15T09:51:36Z</time>
					</trkpt>
					<trkpt lat="45.803550" lon="4.412540">
						<ele>699</ele>
						<time>2026-04-15T09:51:45Z</time>
					</trkpt>
					<trkpt lat="45.802920" lon="4.413130">
						<ele>698</ele>
						<time>2026-04-15T09:51:58Z</time>
					</trkpt>
					<trkpt lat="45.802800" lon="4.413450">
						<ele>697</ele>
						<time>2026-04-15T09:52:03Z</time>
					</trkpt>
					<trkpt lat="45.802560" lon="4.413830">
						<ele>697</ele>
						<time>2026-04-15T09:52:09Z</time>
					</trkpt>
					<trkpt lat="45.802160" lon="4.414160">
						<ele>696</ele>
						<time>2026-04-15T09:52:17Z</time>
					</trkpt>
					<trkpt lat="45.802030" lon="4.414200">
						<ele>696</ele>
						<time>2026-04-15T09:52:20Z</time>
					</trkpt>
					<trkpt lat="45.801950" lon="4.414140">
						<ele>697</ele>
						<time>2026-04-15T09:52:21Z</time>
					</trkpt>
					<trkpt lat="45.801830" lon="4.414000">
						<ele>698</ele>
						<time>2026-04-15T09:52:24Z</time>
					</trkpt>
					<trkpt lat="45.801690" lon="4.413810">
						<ele>700</ele>
						<time>2026-04-15T09:52:27Z</time>
					</trkpt>
					<trkpt lat="45.801470" lon="4.413500">
						<ele>700</ele>
						<time>2026-04-15T09:52:33Z</time>
					</trkpt>
					<trkpt lat="45.801450" lon="4.413470">
						<ele>700</ele>
						<time>2026-04-15T09:52:33Z</time>
					</trkpt>
					<trkpt lat="45.801330" lon="4.413360">
						<ele>701</ele>
						<time>2026-04-15T09:52:36Z</time>
					</trkpt>
					<trkpt lat="45.801270" lon="4.413330">
						<ele>701</ele>
						<time>2026-04-15T09:52:37Z</time>
					</trkpt>
					<trkpt lat="45.800780" lon="4.413080">
						<ele>703</ele>
						<time>2026-04-15T09:52:46Z</time>
					</trkpt>
					<trkpt lat="45.800570" lon="4.413000">
						<ele>704</ele>
						<time>2026-04-15T09:52:50Z</time>
					</trkpt>
					<trkpt lat="45.800480" lon="4.412990">
						<ele>704</ele>
						<time>2026-04-15T09:52:52Z</time>
					</trkpt>
					<trkpt lat="45.800160" lon="4.413070">
						<ele>701</ele>
						<time>2026-04-15T09:52:58Z</time>
					</trkpt>
					<trkpt lat="45.800050" lon="4.413080">
						<ele>700</ele>
						<time>2026-04-15T09:53:00Z</time>
					</trkpt>
					<trkpt lat="45.799950" lon="4.413060">
						<ele>700</ele>
						<time>2026-04-15T09:53:01Z</time>
					</trkpt>
					<trkpt lat="45.799560" lon="4.412820">
						<ele>703</ele>
						<time>2026-04-15T09:53:09Z</time>
					</trkpt>
					<trkpt lat="45.799140" lon="4.412610">
						<ele>704</ele>
						<time>2026-04-15T09:53:17Z</time>
					</trkpt>
					<trkpt lat="45.798440" lon="4.412380">
						<ele>693</ele>
						<time>2026-04-15T09:53:30Z</time>
					</trkpt>
					<trkpt lat="45.797830" lon="4.412290">
						<ele>683</ele>
						<time>2026-04-15T09:53:41Z</time>
					</trkpt>
					<trkpt lat="45.797350" lon="4.412190">
						<ele>677</ele>
						<time>2026-04-15T09:53:49Z</time>
					</trkpt>
					<trkpt lat="45.797060" lon="4.412120">
						<ele>674</ele>
						<time>2026-04-15T09:53:54Z</time>
					</trkpt>
					<trkpt lat="45.796930" lon="4.412100">
						<ele>672</ele>
						<time>2026-04-15T09:53:57Z</time>
					</trkpt>
					<trkpt lat="45.795830" lon="4.411960">
						<ele>663</ele>
						<time>2026-04-15T09:54:16Z</time>
					</trkpt>
					<trkpt lat="45.795290" lon="4.411890">
						<ele>657</ele>
						<time>2026-04-15T09:54:26Z</time>
					</trkpt>
					<trkpt lat="45.795240" lon="4.411880">
						<ele>656</ele>
						<time>2026-04-15T09:54:27Z</time>
					</trkpt>
					<trkpt lat="45.795140" lon="4.411790">
						<ele>655</ele>
						<time>2026-04-15T09:54:29Z</time>
					</trkpt>
					<trkpt lat="45.795090" lon="4.411760">
						<ele>655</ele>
						<time>2026-04-15T09:54:30Z</time>
					</trkpt>
					<trkpt lat="45.795020" lon="4.412120">
						<ele>654</ele>
						<time>2026-04-15T09:54:35Z</time>
					</trkpt>
					<trkpt lat="45.794980" lon="4.412180">
						<ele>653</ele>
						<time>2026-04-15T09:54:36Z</time>
					</trkpt>
					<trkpt lat="45.794800" lon="4.412330">
						<ele>649</ele>
						<time>2026-04-15T09:54:39Z</time>
					</trkpt>
					<trkpt lat="45.794770" lon="4.412470">
						<ele>649</ele>
						<time>2026-04-15T09:54:41Z</time>
					</trkpt>
					<trkpt lat="45.794750" lon="4.412640">
						<ele>647</ele>
						<time>2026-04-15T09:54:43Z</time>
					</trkpt>
					<trkpt lat="45.794770" lon="4.412780">
						<ele>646</ele>
						<time>2026-04-15T09:54:45Z</time>
					</trkpt>
					<trkpt lat="45.794900" lon="4.413260">
						<ele>643</ele>
						<time>2026-04-15T09:54:51Z</time>
					</trkpt>
					<trkpt lat="45.794930" lon="4.413410">
						<ele>642</ele>
						<time>2026-04-15T09:54:53Z</time>
					</trkpt>
					<trkpt lat="45.794940" lon="4.413540">
						<ele>641</ele>
						<time>2026-04-15T09:54:55Z</time>
					</trkpt>
					<trkpt lat="45.794940" lon="4.413680">
						<ele>639</ele>
						<time>2026-04-15T09:54:57Z</time>
					</trkpt>
					<trkpt lat="45.794790" lon="4.414480">
						<ele>632</ele>
						<time>2026-04-15T09:55:07Z</time>
					</trkpt>
					<trkpt lat="45.794810" lon="4.414650">
						<ele>632</ele>
						<time>2026-04-15T09:55:09Z</time>
					</trkpt>
					<trkpt lat="45.794840" lon="4.414790">
						<ele>632</ele>
						<time>2026-04-15T09:55:11Z</time>
					</trkpt>
					<trkpt lat="45.794860" lon="4.414820">
						<ele>632</ele>
						<time>2026-04-15T09:55:11Z</time>
					</trkpt>
					<trkpt lat="45.794950" lon="4.415030">
						<ele>631</ele>
						<time>2026-04-15T09:55:15Z</time>
					</trkpt>
					<trkpt lat="45.794990" lon="4.415140">
						<ele>632</ele>
						<time>2026-04-15T09:55:16Z</time>
					</trkpt>
					<trkpt lat="45.795000" lon="4.415240">
						<ele>632</ele>
						<time>2026-04-15T09:55:17Z</time>
					</trkpt>
					<trkpt lat="45.794940" lon="4.415560">
						<ele>634</ele>
						<time>2026-04-15T09:55:21Z</time>
					</trkpt>
					<trkpt lat="45.794940" lon="4.415720">
						<ele>634</ele>
						<time>2026-04-15T09:55:23Z</time>
					</trkpt>
					<trkpt lat="45.795040" lon="4.416060">
						<ele>636</ele>
						<time>2026-04-15T09:55:28Z</time>
					</trkpt>
					<trkpt lat="45.795090" lon="4.416340">
						<ele>638</ele>
						<time>2026-04-15T09:55:32Z</time>
					</trkpt>
					<trkpt lat="45.795090" lon="4.416430">
						<ele>639</ele>
						<time>2026-04-15T09:55:33Z</time>
					</trkpt>
					<trkpt lat="45.795100" lon="4.416600">
						<ele>640</ele>
						<time>2026-04-15T09:55:35Z</time>
					</trkpt>
					<trkpt lat="45.795050" lon="4.417020">
						<ele>644</ele>
						<time>2026-04-15T09:55:40Z</time>
					</trkpt>
					<trkpt lat="45.795020" lon="4.417360">
						<ele>647</ele>
						<time>2026-04-15T09:55:44Z</time>
					</trkpt>
					<trkpt lat="45.795020" lon="4.417610">
						<ele>648</ele>
						<time>2026-04-15T09:55:47Z</time>
					</trkpt>
					<trkpt lat="45.794990" lon="4.417700">
						<ele>649</ele>
						<time>2026-04-15T09:55:49Z</time>
					</trkpt>
					<trkpt lat="45.794940" lon="4.417680">
						<ele>649</ele>
						<time>2026-04-15T09:55:50Z</time>
					</trkpt>
					<trkpt lat="45.794920" lon="4.417630">
						<ele>650</ele>
						<time>2026-04-15T09:55:50Z</time>
					</trkpt>
					<trkpt lat="45.794870" lon="4.417390">
						<ele>649</ele>
						<time>2026-04-15T09:55:53Z</time>
					</trkpt>
					<trkpt lat="45.794850" lon="4.417260">
						<ele>648</ele>
						<time>2026-04-15T09:55:55Z</time>
					</trkpt>
					<trkpt lat="45.794780" lon="4.417120">
						<ele>647</ele>
						<time>2026-04-15T09:55:57Z</time>
					</trkpt>
					<trkpt lat="45.794690" lon="4.417060">
						<ele>647</ele>
						<time>2026-04-15T09:55:59Z</time>
					</trkpt>
					<trkpt lat="45.794610" lon="4.417060">
						<ele>648</ele>
						<time>2026-04-15T09:56:00Z</time>
					</trkpt>
					<trkpt lat="45.794540" lon="4.417120">
						<ele>650</ele>
						<time>2026-04-15T09:56:02Z</time>
					</trkpt>
					<trkpt lat="45.794430" lon="4.417330">
						<ele>653</ele>
						<time>2026-04-15T09:56:05Z</time>
					</trkpt>
					<trkpt lat="45.794240" lon="4.417770">
						<ele>660</ele>
						<time>2026-04-15T09:56:12Z</time>
					</trkpt>
					<trkpt lat="45.793980" lon="4.418590">
						<ele>670</ele>
						<time>2026-04-15T09:56:23Z</time>
					</trkpt>
					<trkpt lat="45.793720" lon="4.419140">
						<ele>674</ele>
						<time>2026-04-15T09:56:31Z</time>
					</trkpt>
					<trkpt lat="45.793370" lon="4.419830">
						<ele>680</ele>
						<time>2026-04-15T09:56:42Z</time>
					</trkpt>
					<trkpt lat="45.793240" lon="4.420050">
						<ele>682</ele>
						<time>2026-04-15T09:56:45Z</time>
					</trkpt>
					<trkpt lat="45.792710" lon="4.420920">
						<ele>690</ele>
						<time>2026-04-15T09:56:59Z</time>
					</trkpt>
					<trkpt lat="45.792380" lon="4.421330">
						<ele>694</ele>
						<time>2026-04-15T09:57:07Z</time>
					</trkpt>
					<trkpt lat="45.792220" lon="4.421490">
						<ele>696</ele>
						<time>2026-04-15T09:57:11Z</time>
					</trkpt>
					<trkpt lat="45.791970" lon="4.421670">
						<ele>698</ele>
						<time>2026-04-15T09:57:16Z</time>
					</trkpt>
					<trkpt lat="45.791890" lon="4.421770">
						<ele>698</ele>
						<time>2026-04-15T09:57:18Z</time>
					</trkpt>
					<trkpt lat="45.791860" lon="4.421900">
						<ele>699</ele>
						<time>2026-04-15T09:57:19Z</time>
					</trkpt>
					<trkpt lat="45.791860" lon="4.421990">
						<ele>699</ele>
						<time>2026-04-15T09:57:20Z</time>
					</trkpt>
					<trkpt lat="45.791850" lon="4.422180">
						<ele>700</ele>
						<time>2026-04-15T09:57:23Z</time>
					</trkpt>
					<trkpt lat="45.791850" lon="4.422730">
						<ele>702</ele>
						<time>2026-04-15T09:57:30Z</time>
					</trkpt>
					<trkpt lat="45.791830" lon="4.422890">
						<ele>702</ele>
						<time>2026-04-15T09:57:32Z</time>
					</trkpt>
					<trkpt lat="45.791810" lon="4.422960">
						<ele>702</ele>
						<time>2026-04-15T09:57:33Z</time>
					</trkpt>
					<trkpt lat="45.791740" lon="4.423070">
						<ele>702</ele>
						<time>2026-04-15T09:57:34Z</time>
					</trkpt>
					<trkpt lat="45.791520" lon="4.423410">
						<ele>700</ele>
						<time>2026-04-15T09:57:40Z</time>
					</trkpt>
					<trkpt lat="45.791450" lon="4.423510">
						<ele>698</ele>
						<time>2026-04-15T09:57:42Z</time>
					</trkpt>
					<trkpt lat="45.791550" lon="4.423850">
						<ele>698</ele>
						<time>2026-04-15T09:57:46Z</time>
					</trkpt>
					<trkpt lat="45.791670" lon="4.424240">
						<ele>697</ele>
						<time>2026-04-15T09:57:52Z</time>
					</trkpt>
					<trkpt lat="45.791750" lon="4.424330">
						<ele>697</ele>
						<time>2026-04-15T09:57:54Z</time>
					</trkpt>
					<trkpt lat="45.791890" lon="4.424510">
						<ele>696</ele>
						<time>2026-04-15T09:57:57Z</time>
					</trkpt>
					<trkpt lat="45.792000" lon="4.424710">
						<ele>695</ele>
						<time>2026-04-15T09:58:00Z</time>
					</trkpt>
					<trkpt lat="45.792170" lon="4.425000">
						<ele>694</ele>
						<time>2026-04-15T09:58:05Z</time>
					</trkpt>
					<trkpt lat="45.792310" lon="4.425200">
						<ele>692</ele>
						<time>2026-04-15T09:58:08Z</time>
					</trkpt>
					<trkpt lat="45.793020" lon="4.426020">
						<ele>690</ele>
						<time>2026-04-15T09:58:25Z</time>
					</trkpt>
					<trkpt lat="45.793130" lon="4.426200">
						<ele>691</ele>
						<time>2026-04-15T09:58:27Z</time>
					</trkpt>
					<trkpt lat="45.793350" lon="4.426690">
						<ele>692</ele>
						<time>2026-04-15T09:58:35Z</time>
					</trkpt>
					<trkpt lat="45.793500" lon="4.427020">
						<ele>691</ele>
						<time>2026-04-15T09:58:40Z</time>
					</trkpt>
					<trkpt lat="45.793620" lon="4.427180">
						<ele>691</ele>
						<time>2026-04-15T09:58:43Z</time>
					</trkpt>
					<trkpt lat="45.793750" lon="4.427300">
						<ele>691</ele>
						<time>2026-04-15T09:58:45Z</time>
					</trkpt>
					<trkpt lat="45.793930" lon="4.427390">
						<ele>692</ele>
						<time>2026-04-15T09:58:49Z</time>
					</trkpt>
					<trkpt lat="45.794110" lon="4.427430">
						<ele>692</ele>
						<time>2026-04-15T09:58:52Z</time>
					</trkpt>
					<trkpt lat="45.794310" lon="4.427410">
						<ele>693</ele>
						<time>2026-04-15T09:58:55Z</time>
					</trkpt>
					<trkpt lat="45.795760" lon="4.426990">
						<ele>701</ele>
						<time>2026-04-15T09:59:22Z</time>
					</trkpt>
					<trkpt lat="45.795990" lon="4.426930">
						<ele>703</ele>
						<time>2026-04-15T09:59:26Z</time>
					</trkpt>
					<trkpt lat="45.796130" lon="4.426930">
						<ele>704</ele>
						<time>2026-04-15T09:59:28Z</time>
					</trkpt>
					<trkpt lat="45.796240" lon="4.426980">
						<ele>704</ele>
						<time>2026-04-15T09:59:31Z</time>
					</trkpt>
					<trkpt lat="45.796340" lon="4.427050">
						<ele>704</ele>
						<time>2026-04-15T09:59:32Z</time>
					</trkpt>
					<trkpt lat="45.796440" lon="4.427170">
						<ele>703</ele>
						<time>2026-04-15T09:59:35Z</time>
					</trkpt>
					<trkpt lat="45.796520" lon="4.427330">
						<ele>702</ele>
						<time>2026-04-15T09:59:37Z</time>
					</trkpt>
					<trkpt lat="45.796560" lon="4.427460">
						<ele>701</ele>
						<time>2026-04-15T09:59:39Z</time>
					</trkpt>
					<trkpt lat="45.796540" lon="4.427680">
						<ele>700</ele>
						<time>2026-04-15T09:59:42Z</time>
					</trkpt>
					<trkpt lat="45.796360" lon="4.428310">
						<ele>700</ele>
						<time>2026-04-15T09:59:50Z</time>
					</trkpt>
					<trkpt lat="45.796010" lon="4.429070">
						<ele>703</ele>
						<time>2026-04-15T10:00:02Z</time>
					</trkpt>
					<trkpt lat="45.795920" lon="4.429320">
						<ele>705</ele>
						<time>2026-04-15T10:00:05Z</time>
					</trkpt>
					<trkpt lat="45.795850" lon="4.429620">
						<ele>707</ele>
						<time>2026-04-15T10:00:09Z</time>
					</trkpt>
					<trkpt lat="45.795810" lon="4.429910">
						<ele>709</ele>
						<time>2026-04-15T10:00:13Z</time>
					</trkpt>
					<trkpt lat="45.795760" lon="4.430150">
						<ele>711</ele>
						<time>2026-04-15T10:00:16Z</time>
					</trkpt>
					<trkpt lat="45.795720" lon="4.430310">
						<ele>712</ele>
						<time>2026-04-15T10:00:18Z</time>
					</trkpt>
					<trkpt lat="45.795630" lon="4.430470">
						<ele>714</ele>
						<time>2026-04-15T10:00:20Z</time>
					</trkpt>
					<trkpt lat="45.795550" lon="4.430560">
						<ele>714</ele>
						<time>2026-04-15T10:00:22Z</time>
					</trkpt>
					<trkpt lat="45.795440" lon="4.430630">
						<ele>715</ele>
						<time>2026-04-15T10:00:24Z</time>
					</trkpt>
					<trkpt lat="45.795270" lon="4.430690">
						<ele>715</ele>
						<time>2026-04-15T10:00:27Z</time>
					</trkpt>
					<trkpt lat="45.795010" lon="4.430740">
						<ele>715</ele>
						<time>2026-04-15T10:00:32Z</time>
					</trkpt>
					<trkpt lat="45.794820" lon="4.430790">
						<ele>714</ele>
						<time>2026-04-15T10:00:36Z</time>
					</trkpt>
					<trkpt lat="45.794690" lon="4.430860">
						<ele>713</ele>
						<time>2026-04-15T10:00:38Z</time>
					</trkpt>
					<trkpt lat="45.794580" lon="4.430930">
						<ele>713</ele>
						<time>2026-04-15T10:00:40Z</time>
					</trkpt>
					<trkpt lat="45.794350" lon="4.431180">
						<ele>714</ele>
						<time>2026-04-15T10:00:45Z</time>
					</trkpt>
					<trkpt lat="45.794260" lon="4.431370">
						<ele>715</ele>
						<time>2026-04-15T10:00:48Z</time>
					</trkpt>
					<trkpt lat="45.794200" lon="4.431560">
						<ele>716</ele>
						<time>2026-04-15T10:00:51Z</time>
					</trkpt>
					<trkpt lat="45.794170" lon="4.431760">
						<ele>718</ele>
						<time>2026-04-15T10:00:53Z</time>
					</trkpt>
					<trkpt lat="45.794100" lon="4.433350">
						<ele>721</ele>
						<time>2026-04-15T10:01:13Z</time>
					</trkpt>
					<trkpt lat="45.794000" lon="4.434060">
						<ele>720</ele>
						<time>2026-04-15T10:01:22Z</time>
					</trkpt>
					<trkpt lat="45.793990" lon="4.434230">
						<ele>720</ele>
						<time>2026-04-15T10:01:24Z</time>
					</trkpt>
					<trkpt lat="45.794000" lon="4.434450">
						<ele>721</ele>
						<time>2026-04-15T10:01:27Z</time>
					</trkpt>
					<trkpt lat="45.794090" lon="4.435090">
						<ele>725</ele>
						<time>2026-04-15T10:01:35Z</time>
					</trkpt>
					<trkpt lat="45.794090" lon="4.435300">
						<ele>727</ele>
						<time>2026-04-15T10:01:38Z</time>
					</trkpt>
					<trkpt lat="45.794090" lon="4.435370">
						<ele>728</ele>
						<time>2026-04-15T10:01:38Z</time>
					</trkpt>
					<trkpt lat="45.794070" lon="4.435520">
						<ele>729</ele>
						<time>2026-04-15T10:01:40Z</time>
					</trkpt>
					<trkpt lat="45.794000" lon="4.435750">
						<ele>731</ele>
						<time>2026-04-15T10:01:43Z</time>
					</trkpt>
					<trkpt lat="45.793910" lon="4.435930">
						<ele>733</ele>
						<time>2026-04-15T10:01:46Z</time>
					</trkpt>
					<trkpt lat="45.793810" lon="4.436020">
						<ele>733</ele>
						<time>2026-04-15T10:01:48Z</time>
					</trkpt>
					<trkpt lat="45.793680" lon="4.436100">
						<ele>734</ele>
						<time>2026-04-15T10:01:51Z</time>
					</trkpt>
					<trkpt lat="45.793550" lon="4.436120">
						<ele>734</ele>
						<time>2026-04-15T10:01:53Z</time>
					</trkpt>
					<trkpt lat="45.793210" lon="4.436150">
						<ele>733</ele>
						<time>2026-04-15T10:01:59Z</time>
					</trkpt>
					<trkpt lat="45.792750" lon="4.436450">
						<ele>739</ele>
						<time>2026-04-15T10:02:08Z</time>
					</trkpt>
					<trkpt lat="45.792600" lon="4.436530">
						<ele>741</ele>
						<time>2026-04-15T10:02:11Z</time>
					</trkpt>
					<trkpt lat="45.792320" lon="4.436620">
						<ele>742</ele>
						<time>2026-04-15T10:02:16Z</time>
					</trkpt>
					<trkpt lat="45.792180" lon="4.436690">
						<ele>741</ele>
						<time>2026-04-15T10:02:19Z</time>
					</trkpt>
					<trkpt lat="45.792010" lon="4.436810">
						<ele>741</ele>
						<time>2026-04-15T10:02:22Z</time>
					</trkpt>
					<trkpt lat="45.791870" lon="4.436990">
						<ele>741</ele>
						<time>2026-04-15T10:02:25Z</time>
					</trkpt>
					<trkpt lat="45.791740" lon="4.437160">
						<ele>741</ele>
						<time>2026-04-15T10:02:29Z</time>
					</trkpt>
					<trkpt lat="45.791660" lon="4.437360">
						<ele>742</ele>
						<time>2026-04-15T10:02:31Z</time>
					</trkpt>
					<trkpt lat="45.791630" lon="4.437520">
						<ele>743</ele>
						<time>2026-04-15T10:02:34Z</time>
					</trkpt>
					<trkpt lat="45.791610" lon="4.437720">
						<ele>743</ele>
						<time>2026-04-15T10:02:36Z</time>
					</trkpt>
					<trkpt lat="45.791630" lon="4.437940">
						<ele>744</ele>
						<time>2026-04-15T10:02:39Z</time>
					</trkpt>
					<trkpt lat="45.791660" lon="4.438160">
						<ele>745</ele>
						<time>2026-04-15T10:02:42Z</time>
					</trkpt>
					<trkpt lat="45.791710" lon="4.438390">
						<ele>744</ele>
						<time>2026-04-15T10:02:45Z</time>
					</trkpt>
					<trkpt lat="45.791770" lon="4.438580">
						<ele>742</ele>
						<time>2026-04-15T10:02:47Z</time>
					</trkpt>
					<trkpt lat="45.791840" lon="4.438720">
						<ele>741</ele>
						<time>2026-04-15T10:02:49Z</time>
					</trkpt>
					<trkpt lat="45.791940" lon="4.438850">
						<ele>739</ele>
						<time>2026-04-15T10:02:52Z</time>
					</trkpt>
					<trkpt lat="45.792080" lon="4.438900">
						<ele>739</ele>
						<time>2026-04-15T10:02:54Z</time>
					</trkpt>
					<trkpt lat="45.792880" lon="4.438890">
						<ele>739</ele>
						<time>2026-04-15T10:03:08Z</time>
					</trkpt>
					<trkpt lat="45.793180" lon="4.438910">
						<ele>738</ele>
						<time>2026-04-15T10:03:14Z</time>
					</trkpt>
					<trkpt lat="45.793310" lon="4.438950">
						<ele>737</ele>
						<time>2026-04-15T10:03:16Z</time>
					</trkpt>
					<trkpt lat="45.793420" lon="4.439010">
						<ele>737</ele>
						<time>2026-04-15T10:03:18Z</time>
					</trkpt>
					<trkpt lat="45.793510" lon="4.439110">
						<ele>736</ele>
						<time>2026-04-15T10:03:20Z</time>
					</trkpt>
					<trkpt lat="45.793580" lon="4.439240">
						<ele>735</ele>
						<time>2026-04-15T10:03:22Z</time>
					</trkpt>
					<trkpt lat="45.793630" lon="4.439430">
						<ele>734</ele>
						<time>2026-04-15T10:03:25Z</time>
					</trkpt>
					<trkpt lat="45.793650" lon="4.439600">
						<ele>732</ele>
						<time>2026-04-15T10:03:27Z</time>
					</trkpt>
					<trkpt lat="45.793650" lon="4.439820">
						<ele>730</ele>
						<time>2026-04-15T10:03:30Z</time>
					</trkpt>
					<trkpt lat="45.793600" lon="4.440430">
						<ele>726</ele>
						<time>2026-04-15T10:03:37Z</time>
					</trkpt>
					<trkpt lat="45.793380" lon="4.442100">
						<ele>727</ele>
						<time>2026-04-15T10:03:58Z</time>
					</trkpt>
					<trkpt lat="45.793380" lon="4.442110">
						<ele>727</ele>
						<time>2026-04-15T10:03:59Z</time>
					</trkpt>
					<trkpt lat="45.793320" lon="4.442690">
						<ele>726</ele>
						<time>2026-04-15T10:04:06Z</time>
					</trkpt>
					<trkpt lat="45.793300" lon="4.442870">
						<ele>726</ele>
						<time>2026-04-15T10:04:08Z</time>
					</trkpt>
					<trkpt lat="45.793280" lon="4.444180">
						<ele>722</ele>
						<time>2026-04-15T10:04:24Z</time>
					</trkpt>
					<trkpt lat="45.793290" lon="4.444440">
						<ele>723</ele>
						<time>2026-04-15T10:04:28Z</time>
					</trkpt>
					<trkpt lat="45.793350" lon="4.444670">
						<ele>724</ele>
						<time>2026-04-15T10:04:31Z</time>
					</trkpt>
					<trkpt lat="45.793420" lon="4.444840">
						<ele>723</ele>
						<time>2026-04-15T10:04:33Z</time>
					</trkpt>
					<trkpt lat="45.793530" lon="4.445000">
						<ele>722</ele>
						<time>2026-04-15T10:04:36Z</time>
					</trkpt>
					<trkpt lat="45.793660" lon="4.445100">
						<ele>721</ele>
						<time>2026-04-15T10:04:38Z</time>
					</trkpt>
					<trkpt lat="45.793930" lon="4.445250">
						<ele>719</ele>
						<time>2026-04-15T10:04:44Z</time>
					</trkpt>
					<trkpt lat="45.793990" lon="4.445300">
						<ele>719</ele>
						<time>2026-04-15T10:04:45Z</time>
					</trkpt>
					<trkpt lat="45.794080" lon="4.445360">
						<ele>719</ele>
						<time>2026-04-15T10:04:47Z</time>
					</trkpt>
					<trkpt lat="45.794210" lon="4.445530">
						<ele>719</ele>
						<time>2026-04-15T10:04:50Z</time>
					</trkpt>
					<trkpt lat="45.794320" lon="4.445730">
						<ele>720</ele>
						<time>2026-04-15T10:04:53Z</time>
					</trkpt>
					<trkpt lat="45.794420" lon="4.446110">
						<ele>721</ele>
						<time>2026-04-15T10:04:58Z</time>
					</trkpt>
					<trkpt lat="45.794820" lon="4.448070">
						<ele>724</ele>
						<time>2026-04-15T10:05:23Z</time>
					</trkpt>
					<trkpt lat="45.794850" lon="4.448300">
						<ele>724</ele>
						<time>2026-04-15T10:05:26Z</time>
					</trkpt>
					<trkpt lat="45.794850" lon="4.448550">
						<ele>725</ele>
						<time>2026-04-15T10:05:29Z</time>
					</trkpt>
					<trkpt lat="45.794640" lon="4.449790">
						<ele>727</ele>
						<time>2026-04-15T10:05:45Z</time>
					</trkpt>
					<trkpt lat="45.794600" lon="4.450100">
						<ele>728</ele>
						<time>2026-04-15T10:05:49Z</time>
					</trkpt>
					<trkpt lat="45.794590" lon="4.450370">
						<ele>727</ele>
						<time>2026-04-15T10:05:52Z</time>
					</trkpt>
					<trkpt lat="45.794610" lon="4.450580">
						<ele>727</ele>
						<time>2026-04-15T10:05:55Z</time>
					</trkpt>
					<trkpt lat="45.794660" lon="4.450780">
						<ele>727</ele>
						<time>2026-04-15T10:05:58Z</time>
					</trkpt>
					<trkpt lat="45.794760" lon="4.450930">
						<ele>727</ele>
						<time>2026-04-15T10:06:00Z</time>
					</trkpt>
					<trkpt lat="45.794790" lon="4.450950">
						<ele>728</ele>
						<time>2026-04-15T10:06:01Z</time>
					</trkpt>
					<trkpt lat="45.794900" lon="4.451030">
						<ele>728</ele>
						<time>2026-04-15T10:06:03Z</time>
					</trkpt>
					<trkpt lat="45.795070" lon="4.451040">
						<ele>729</ele>
						<time>2026-04-15T10:06:06Z</time>
					</trkpt>
					<trkpt lat="45.795300" lon="4.450970">
						<ele>729</ele>
						<time>2026-04-15T10:06:10Z</time>
					</trkpt>
					<trkpt lat="45.795490" lon="4.450860">
						<ele>731</ele>
						<time>2026-04-15T10:06:14Z</time>
					</trkpt>
					<trkpt lat="45.796080" lon="4.450380">
						<ele>740</ele>
						<time>2026-04-15T10:06:26Z</time>
					</trkpt>
					<trkpt lat="45.796510" lon="4.450210">
						<ele>739</ele>
						<time>2026-04-15T10:06:34Z</time>
					</trkpt>
					<trkpt lat="45.796750" lon="4.450150">
						<ele>738</ele>
						<time>2026-04-15T10:06:38Z</time>
					</trkpt>
					<trkpt lat="45.796950" lon="4.450150">
						<ele>735</ele>
						<time>2026-04-15T10:06:42Z</time>
					</trkpt>
					<trkpt lat="45.797180" lon="4.450240">
						<ele>730</ele>
						<time>2026-04-15T10:06:46Z</time>
					</trkpt>
					<trkpt lat="45.798120" lon="4.450840">
						<ele>719</ele>
						<time>2026-04-15T10:07:04Z</time>
					</trkpt>
					<trkpt lat="45.798350" lon="4.451010">
						<ele>719</ele>
						<time>2026-04-15T10:07:09Z</time>
					</trkpt>
					<trkpt lat="45.798620" lon="4.451480">
						<ele>719</ele>
						<time>2026-04-15T10:07:17Z</time>
					</trkpt>
					<trkpt lat="45.798730" lon="4.451760">
						<ele>719</ele>
						<time>2026-04-15T10:07:20Z</time>
					</trkpt>
					<trkpt lat="45.798760" lon="4.451840">
						<ele>718</ele>
						<time>2026-04-15T10:07:22Z</time>
					</trkpt>
					<trkpt lat="45.798810" lon="4.451980">
						<ele>718</ele>
						<time>2026-04-15T10:07:24Z</time>
					</trkpt>
					<trkpt lat="45.798870" lon="4.452170">
						<ele>718</ele>
						<time>2026-04-15T10:07:26Z</time>
					</trkpt>
					<trkpt lat="45.798910" lon="4.452440">
						<ele>718</ele>
						<time>2026-04-15T10:07:30Z</time>
					</trkpt>
					<trkpt lat="45.799000" lon="4.453910">
						<ele>714</ele>
						<time>2026-04-15T10:07:48Z</time>
					</trkpt>
					<trkpt lat="45.799140" lon="4.456020">
						<ele>706</ele>
						<time>2026-04-15T10:08:14Z</time>
					</trkpt>
					<trkpt lat="45.799130" lon="4.456290">
						<ele>705</ele>
						<time>2026-04-15T10:08:18Z</time>
					</trkpt>
					<trkpt lat="45.799120" lon="4.456590">
						<ele>705</ele>
						<time>2026-04-15T10:08:21Z</time>
					</trkpt>
					<trkpt lat="45.799050" lon="4.456920">
						<ele>704</ele>
						<time>2026-04-15T10:08:26Z</time>
					</trkpt>
					<trkpt lat="45.798930" lon="4.457290">
						<ele>703</ele>
						<time>2026-04-15T10:08:31Z</time>
					</trkpt>
					<trkpt lat="45.798880" lon="4.457430">
						<ele>702</ele>
						<time>2026-04-15T10:08:33Z</time>
					</trkpt>
					<trkpt lat="45.798600" lon="4.458230">
						<ele>699</ele>
						<time>2026-04-15T10:08:44Z</time>
					</trkpt>
					<trkpt lat="45.798520" lon="4.458440">
						<ele>698</ele>
						<time>2026-04-15T10:08:47Z</time>
					</trkpt>
					<trkpt lat="45.798430" lon="4.458610">
						<ele>698</ele>
						<time>2026-04-15T10:08:49Z</time>
					</trkpt>
					<trkpt lat="45.798340" lon="4.458720">
						<ele>697</ele>
						<time>2026-04-15T10:08:51Z</time>
					</trkpt>
					<trkpt lat="45.798210" lon="4.458810">
						<ele>697</ele>
						<time>2026-04-15T10:08:54Z</time>
					</trkpt>
					<trkpt lat="45.798030" lon="4.458870">
						<ele>696</ele>
						<time>2026-04-15T10:08:57Z</time>
					</trkpt>
					<trkpt lat="45.797800" lon="4.458860">
						<ele>694</ele>
						<time>2026-04-15T10:09:01Z</time>
					</trkpt>
					<trkpt lat="45.796890" lon="4.458620">
						<ele>684</ele>
						<time>2026-04-15T10:09:18Z</time>
					</trkpt>
					<trkpt lat="45.796730" lon="4.458620">
						<ele>683</ele>
						<time>2026-04-15T10:09:21Z</time>
					</trkpt>
					<trkpt lat="45.796620" lon="4.458650">
						<ele>683</ele>
						<time>2026-04-15T10:09:23Z</time>
					</trkpt>
					<trkpt lat="45.796460" lon="4.458740">
						<ele>683</ele>
						<time>2026-04-15T10:09:26Z</time>
					</trkpt>
					<trkpt lat="45.795540" lon="4.459450">
						<ele>678</ele>
						<time>2026-04-15T10:09:44Z</time>
					</trkpt>
					<trkpt lat="45.795370" lon="4.459620">
						<ele>676</ele>
						<time>2026-04-15T10:09:48Z</time>
					</trkpt>
					<trkpt lat="45.795190" lon="4.459890">
						<ele>675</ele>
						<time>2026-04-15T10:09:53Z</time>
					</trkpt>
					<trkpt lat="45.795110" lon="4.460070">
						<ele>674</ele>
						<time>2026-04-15T10:09:55Z</time>
					</trkpt>
					<trkpt lat="45.795070" lon="4.460060">
						<ele>673</ele>
						<time>2026-04-15T10:09:56Z</time>
					</trkpt>
					<trkpt lat="45.795110" lon="4.460070">
						<ele>674</ele>
						<time>2026-04-15T10:09:57Z</time>
					</trkpt>
					<trkpt lat="45.794980" lon="4.460520">
						<ele>673</ele>
						<time>2026-04-15T10:10:03Z</time>
					</trkpt>
					<trkpt lat="45.794690" lon="4.461710">
						<ele>668</ele>
						<time>2026-04-15T10:10:18Z</time>
					</trkpt>
					<trkpt lat="45.794420" lon="4.462890">
						<ele>662</ele>
						<time>2026-04-15T10:10:34Z</time>
					</trkpt>
					<trkpt lat="45.794410" lon="4.462920">
						<ele>662</ele>
						<time>2026-04-15T10:10:34Z</time>
					</trkpt>
					<trkpt lat="45.794420" lon="4.462890">
						<ele>662</ele>
						<time>2026-04-15T10:10:35Z</time>
					</trkpt>
					<trkpt lat="45.794150" lon="4.462570">
						<ele>660</ele>
						<time>2026-04-15T10:10:41Z</time>
					</trkpt>
					<trkpt lat="45.793820" lon="4.462220">
						<ele>658</ele>
						<time>2026-04-15T10:10:48Z</time>
					</trkpt>
					<trkpt lat="45.793410" lon="4.461920">
						<ele>655</ele>
						<time>2026-04-15T10:10:56Z</time>
					</trkpt>
					<trkpt lat="45.793330" lon="4.461810">
						<ele>655</ele>
						<time>2026-04-15T10:10:58Z</time>
					</trkpt>
					<trkpt lat="45.793190" lon="4.461640">
						<ele>653</ele>
						<time>2026-04-15T10:11:02Z</time>
					</trkpt>
					<trkpt lat="45.792990" lon="4.461270">
						<ele>650</ele>
						<time>2026-04-15T10:11:07Z</time>
					</trkpt>
					<trkpt lat="45.792890" lon="4.461020">
						<ele>649</ele>
						<time>2026-04-15T10:11:11Z</time>
					</trkpt>
					<trkpt lat="45.792810" lon="4.460910">
						<ele>647</ele>
						<time>2026-04-15T10:11:13Z</time>
					</trkpt>
					<trkpt lat="45.792770" lon="4.460870">
						<ele>647</ele>
						<time>2026-04-15T10:11:14Z</time>
					</trkpt>
					<trkpt lat="45.792730" lon="4.460830">
						<ele>646</ele>
						<time>2026-04-15T10:11:15Z</time>
					</trkpt>
					<trkpt lat="45.792790" lon="4.460560">
						<ele>645</ele>
						<time>2026-04-15T10:11:18Z</time>
					</trkpt>
					<trkpt lat="45.792890" lon="4.460170">
						<ele>644</ele>
						<time>2026-04-15T10:11:23Z</time>
					</trkpt>
					<trkpt lat="45.793080" lon="4.459690">
						<ele>643</ele>
						<time>2026-04-15T10:11:30Z</time>
					</trkpt>
					<trkpt lat="45.793200" lon="4.459430">
						<ele>643</ele>
						<time>2026-04-15T10:11:34Z</time>
					</trkpt>
					<trkpt lat="45.793300" lon="4.459010">
						<ele>641</ele>
						<time>2026-04-15T10:11:40Z</time>
					</trkpt>
					<trkpt lat="45.793320" lon="4.458650">
						<ele>640</ele>
						<time>2026-04-15T10:11:44Z</time>
					</trkpt>
					<trkpt lat="45.793350" lon="4.458450">
						<ele>639</ele>
						<time>2026-04-15T10:11:47Z</time>
					</trkpt>
					<trkpt lat="45.793430" lon="4.458220">
						<ele>639</ele>
						<time>2026-04-15T10:11:50Z</time>
					</trkpt>
					<trkpt lat="45.793560" lon="4.457930">
						<ele>640</ele>
						<time>2026-04-15T10:11:54Z</time>
					</trkpt>
					<trkpt lat="45.793680" lon="4.457660">
						<ele>640</ele>
						<time>2026-04-15T10:11:58Z</time>
					</trkpt>
					<trkpt lat="45.793700" lon="4.457580">
						<ele>640</ele>
						<time>2026-04-15T10:11:59Z</time>
					</trkpt>
					<trkpt lat="45.793730" lon="4.457470">
						<ele>640</ele>
						<time>2026-04-15T10:12:01Z</time>
					</trkpt>
					<trkpt lat="45.793710" lon="4.457250">
						<ele>640</ele>
						<time>2026-04-15T10:12:03Z</time>
					</trkpt>
					<trkpt lat="45.793620" lon="4.457070">
						<ele>640</ele>
						<time>2026-04-15T10:12:06Z</time>
					</trkpt>
					<trkpt lat="45.793480" lon="4.456930">
						<ele>640</ele>
						<time>2026-04-15T10:12:09Z</time>
					</trkpt>
					<trkpt lat="45.793280" lon="4.456850">
						<ele>639</ele>
						<time>2026-04-15T10:12:13Z</time>
					</trkpt>
					<trkpt lat="45.792960" lon="4.456870">
						<ele>639</ele>
						<time>2026-04-15T10:12:18Z</time>
					</trkpt>
					<trkpt lat="45.792600" lon="4.457030">
						<ele>636</ele>
						<time>2026-04-15T10:12:25Z</time>
					</trkpt>
					<trkpt lat="45.792090" lon="4.457290">
						<ele>632</ele>
						<time>2026-04-15T10:12:35Z</time>
					</trkpt>
					<trkpt lat="45.791900" lon="4.457420">
						<ele>630</ele>
						<time>2026-04-15T10:12:39Z</time>
					</trkpt>
					<trkpt lat="45.791880" lon="4.457430">
						<ele>629</ele>
						<time>2026-04-15T10:12:39Z</time>
					</trkpt>
					<trkpt lat="45.791750" lon="4.457200">
						<ele>633</ele>
						<time>2026-04-15T10:12:43Z</time>
					</trkpt>
					<trkpt lat="45.791550" lon="4.457030">
						<ele>638</ele>
						<time>2026-04-15T10:12:47Z</time>
					</trkpt>
					<trkpt lat="45.791220" lon="4.456800">
						<ele>647</ele>
						<time>2026-04-15T10:12:53Z</time>
					</trkpt>
					<trkpt lat="45.790940" lon="4.456700">
						<ele>655</ele>
						<time>2026-04-15T10:12:58Z</time>
					</trkpt>
					<trkpt lat="45.790700" lon="4.456770">
						<ele>656</ele>
						<time>2026-04-15T10:13:03Z</time>
					</trkpt>
					<trkpt lat="45.790440" lon="4.456930">
						<ele>654</ele>
						<time>2026-04-15T10:13:08Z</time>
					</trkpt>
					<trkpt lat="45.790330" lon="4.456980">
						<ele>653</ele>
						<time>2026-04-15T10:13:10Z</time>
					</trkpt>
					<trkpt lat="45.790220" lon="4.457000">
						<ele>654</ele>
						<time>2026-04-15T10:13:12Z</time>
					</trkpt>
					<trkpt lat="45.790120" lon="4.456950">
						<ele>656</ele>
						<time>2026-04-15T10:13:14Z</time>
					</trkpt>
					<trkpt lat="45.789960" lon="4.456810">
						<ele>659</ele>
						<time>2026-04-15T10:13:17Z</time>
					</trkpt>
					<trkpt lat="45.789820" lon="4.456450">
						<ele>661</ele>
						<time>2026-04-15T10:13:22Z</time>
					</trkpt>
					<trkpt lat="45.789740" lon="4.456280">
						<ele>661</ele>
						<time>2026-04-15T10:13:25Z</time>
					</trkpt>
					<trkpt lat="45.789620" lon="4.456080">
						<ele>660</ele>
						<time>2026-04-15T10:13:28Z</time>
					</trkpt>
					<trkpt lat="45.789270" lon="4.455390">
						<ele>659</ele>
						<time>2026-04-15T10:13:39Z</time>
					</trkpt>
					<trkpt lat="45.789230" lon="4.455310">
						<ele>658</ele>
						<time>2026-04-15T10:13:40Z</time>
					</trkpt>
					<trkpt lat="45.789220" lon="4.455270">
						<ele>658</ele>
						<time>2026-04-15T10:13:40Z</time>
					</trkpt>
					<trkpt lat="45.789320" lon="4.454740">
						<ele>659</ele>
						<time>2026-04-15T10:13:47Z</time>
					</trkpt>
					<trkpt lat="45.789340" lon="4.454500">
						<ele>658</ele>
						<time>2026-04-15T10:13:50Z</time>
					</trkpt>
					<trkpt lat="45.789340" lon="4.454070">
						<ele>655</ele>
						<time>2026-04-15T10:13:55Z</time>
					</trkpt>
					<trkpt lat="45.789370" lon="4.453590">
						<ele>652</ele>
						<time>2026-04-15T10:14:01Z</time>
					</trkpt>
					<trkpt lat="45.789580" lon="4.451540">
						<ele>648</ele>
						<time>2026-04-15T10:14:27Z</time>
					</trkpt>
					<trkpt lat="45.789580" lon="4.451510">
						<ele>647</ele>
						<time>2026-04-15T10:14:27Z</time>
					</trkpt>
					<trkpt lat="45.789660" lon="4.450920">
						<ele>644</ele>
						<time>2026-04-15T10:14:35Z</time>
					</trkpt>
					<trkpt lat="45.789620" lon="4.450400">
						<ele>645</ele>
						<time>2026-04-15T10:14:41Z</time>
					</trkpt>
					<trkpt lat="45.789600" lon="4.450220">
						<ele>646</ele>
						<time>2026-04-15T10:14:44Z</time>
					</trkpt>
					<trkpt lat="45.789560" lon="4.450120">
						<ele>647</ele>
						<time>2026-04-15T10:14:45Z</time>
					</trkpt>
					<trkpt lat="45.789500" lon="4.450020">
						<ele>647</ele>
						<time>2026-04-15T10:14:47Z</time>
					</trkpt>
					<trkpt lat="45.789390" lon="4.449910">
						<ele>647</ele>
						<time>2026-04-15T10:14:49Z</time>
					</trkpt>
					<trkpt lat="45.788740" lon="4.449550">
						<ele>651</ele>
						<time>2026-04-15T10:15:02Z</time>
					</trkpt>
					<trkpt lat="45.788610" lon="4.449450">
						<ele>653</ele>
						<time>2026-04-15T10:15:04Z</time>
					</trkpt>
					<trkpt lat="45.788450" lon="4.449330">
						<ele>656</ele>
						<time>2026-04-15T10:15:07Z</time>
					</trkpt>
					<trkpt lat="45.788360" lon="4.449280">
						<ele>657</ele>
						<time>2026-04-15T10:15:09Z</time>
					</trkpt>
					<trkpt lat="45.787950" lon="4.449190">
						<ele>659</ele>
						<time>2026-04-15T10:15:16Z</time>
					</trkpt>
					<trkpt lat="45.787910" lon="4.449170">
						<ele>659</ele>
						<time>2026-04-15T10:15:17Z</time>
					</trkpt>
					<trkpt lat="45.787810" lon="4.449110">
						<ele>661</ele>
						<time>2026-04-15T10:15:19Z</time>
					</trkpt>
					<trkpt lat="45.787660" lon="4.449040">
						<ele>664</ele>
						<time>2026-04-15T10:15:22Z</time>
					</trkpt>
					<trkpt lat="45.787260" lon="4.448950">
						<ele>666</ele>
						<time>2026-04-15T10:15:29Z</time>
					</trkpt>
					<trkpt lat="45.786940" lon="4.448910">
						<ele>667</ele>
						<time>2026-04-15T10:15:35Z</time>
					</trkpt>
					<trkpt lat="45.786680" lon="4.448800">
						<ele>669</ele>
						<time>2026-04-15T10:15:40Z</time>
					</trkpt>
					<trkpt lat="45.786450" lon="4.448640">
						<ele>673</ele>
						<time>2026-04-15T10:15:44Z</time>
					</trkpt>
					<trkpt lat="45.786170" lon="4.448470">
						<ele>676</ele>
						<time>2026-04-15T10:15:50Z</time>
					</trkpt>
					<trkpt lat="45.785920" lon="4.448410">
						<ele>677</ele>
						<time>2026-04-15T10:15:54Z</time>
					</trkpt>
					<trkpt lat="45.785890" lon="4.448410">
						<ele>677</ele>
						<time>2026-04-15T10:15:55Z</time>
					</trkpt>
					<trkpt lat="45.785690" lon="4.448420">
						<ele>679</ele>
						<time>2026-04-15T10:15:58Z</time>
					</trkpt>
					<trkpt lat="45.785370" lon="4.448540">
						<ele>680</ele>
						<time>2026-04-15T10:16:04Z</time>
					</trkpt>
					<trkpt lat="45.784860" lon="4.448760">
						<ele>681</ele>
						<time>2026-04-15T10:16:14Z</time>
					</trkpt>
					<trkpt lat="45.784750" lon="4.448880">
						<ele>680</ele>
						<time>2026-04-15T10:16:16Z</time>
					</trkpt>
					<trkpt lat="45.784570" lon="4.448900">
						<ele>678</ele>
						<time>2026-04-15T10:16:19Z</time>
					</trkpt>
					<trkpt lat="45.784380" lon="4.448870">
						<ele>677</ele>
						<time>2026-04-15T10:16:23Z</time>
					</trkpt>
					<trkpt lat="45.784210" lon="4.448720">
						<ele>677</ele>
						<time>2026-04-15T10:16:26Z</time>
					</trkpt>
					<trkpt lat="45.783960" lon="4.448300">
						<ele>677</ele>
						<time>2026-04-15T10:16:33Z</time>
					</trkpt>
					<trkpt lat="45.783750" lon="4.448020">
						<ele>677</ele>
						<time>2026-04-15T10:16:38Z</time>
					</trkpt>
					<trkpt lat="45.783270" lon="4.447380">
						<ele>678</ele>
						<time>2026-04-15T10:16:50Z</time>
					</trkpt>
					<trkpt lat="45.783100" lon="4.447220">
						<ele>682</ele>
						<time>2026-04-15T10:16:53Z</time>
					</trkpt>
					<trkpt lat="45.782980" lon="4.447220">
						<ele>684</ele>
						<time>2026-04-15T10:16:56Z</time>
					</trkpt>
					<trkpt lat="45.782740" lon="4.447300">
						<ele>686</ele>
						<time>2026-04-15T10:17:00Z</time>
					</trkpt>
					<trkpt lat="45.782610" lon="4.447430">
						<ele>686</ele>
						<time>2026-04-15T10:17:03Z</time>
					</trkpt>
					<trkpt lat="45.782540" lon="4.447620">
						<ele>686</ele>
						<time>2026-04-15T10:17:06Z</time>
					</trkpt>
					<trkpt lat="45.782420" lon="4.447870">
						<ele>688</ele>
						<time>2026-04-15T10:17:09Z</time>
					</trkpt>
					<trkpt lat="45.782220" lon="4.448260">
						<ele>693</ele>
						<time>2026-04-15T10:17:15Z</time>
					</trkpt>
					<trkpt lat="45.781870" lon="4.448930">
						<ele>698</ele>
						<time>2026-04-15T10:17:26Z</time>
					</trkpt>
					<trkpt lat="45.781290" lon="4.449990">
						<ele>704</ele>
						<time>2026-04-15T10:17:42Z</time>
					</trkpt>
					<trkpt lat="45.781060" lon="4.450240">
						<ele>708</ele>
						<time>2026-04-15T10:17:48Z</time>
					</trkpt>
					<trkpt lat="45.781030" lon="4.450270">
						<ele>708</ele>
						<time>2026-04-15T10:17:48Z</time>
					</trkpt>
					<trkpt lat="45.780850" lon="4.450550">
						<ele>710</ele>
						<time>2026-04-15T10:17:53Z</time>
					</trkpt>
					<trkpt lat="45.780570" lon="4.451090">
						<ele>708</ele>
						<time>2026-04-15T10:18:01Z</time>
					</trkpt>
					<trkpt lat="45.780330" lon="4.451670">
						<ele>708</ele>
						<time>2026-04-15T10:18:10Z</time>
					</trkpt>
					<trkpt lat="45.780050" lon="4.452210">
						<ele>712</ele>
						<time>2026-04-15T10:18:18Z</time>
					</trkpt>
					<trkpt lat="45.779760" lon="4.452600">
						<ele>713</ele>
						<time>2026-04-15T10:18:25Z</time>
					</trkpt>
					<trkpt lat="45.779610" lon="4.452900">
						<ele>714</ele>
						<time>2026-04-15T10:18:30Z</time>
					</trkpt>
					<trkpt lat="45.779580" lon="4.453240">
						<ele>713</ele>
						<time>2026-04-15T10:18:34Z</time>
					</trkpt>
					<trkpt lat="45.779550" lon="4.453430">
						<ele>714</ele>
						<time>2026-04-15T10:18:36Z</time>
					</trkpt>
					<trkpt lat="45.779460" lon="4.453550">
						<ele>715</ele>
						<time>2026-04-15T10:18:38Z</time>
					</trkpt>
					<trkpt lat="45.779440" lon="4.453560">
						<ele>715</ele>
						<time>2026-04-15T10:18:39Z</time>
					</trkpt>
					<trkpt lat="45.779170" lon="4.453690">
						<ele>718</ele>
						<time>2026-04-15T10:18:44Z</time>
					</trkpt>
					<trkpt lat="45.778620" lon="4.453750">
						<ele>713</ele>
						<time>2026-04-15T10:18:54Z</time>
					</trkpt>
					<trkpt lat="45.778400" lon="4.453630">
						<ele>711</ele>
						<time>2026-04-15T10:18:58Z</time>
					</trkpt>
					<trkpt lat="45.778200" lon="4.453420">
						<ele>711</ele>
						<time>2026-04-15T10:19:02Z</time>
					</trkpt>
					<trkpt lat="45.778140" lon="4.453210">
						<ele>710</ele>
						<time>2026-04-15T10:19:05Z</time>
					</trkpt>
					<trkpt lat="45.778180" lon="4.452740">
						<ele>708</ele>
						<time>2026-04-15T10:19:11Z</time>
					</trkpt>
					<trkpt lat="45.778230" lon="4.452320">
						<ele>706</ele>
						<time>2026-04-15T10:19:16Z</time>
					</trkpt>
					<trkpt lat="45.778250" lon="4.452210">
						<ele>706</ele>
						<time>2026-04-15T10:19:18Z</time>
					</trkpt>
					<trkpt lat="45.778420" lon="4.451650">
						<ele>704</ele>
						<time>2026-04-15T10:19:25Z</time>
					</trkpt>
					<trkpt lat="45.778620" lon="4.450580">
						<ele>701</ele>
						<time>2026-04-15T10:19:39Z</time>
					</trkpt>
					<trkpt lat="45.778630" lon="4.450290">
						<ele>700</ele>
						<time>2026-04-15T10:19:43Z</time>
					</trkpt>
					<trkpt lat="45.778580" lon="4.450070">
						<ele>699</ele>
						<time>2026-04-15T10:19:46Z</time>
					</trkpt>
					<trkpt lat="45.778490" lon="4.449920">
						<ele>699</ele>
						<time>2026-04-15T10:19:48Z</time>
					</trkpt>
					<trkpt lat="45.778430" lon="4.449850">
						<ele>698</ele>
						<time>2026-04-15T10:19:49Z</time>
					</trkpt>
					<trkpt lat="45.778350" lon="4.449770">
						<ele>697</ele>
						<time>2026-04-15T10:19:51Z</time>
					</trkpt>
					<trkpt lat="45.778200" lon="4.449670">
						<ele>698</ele>
						<time>2026-04-15T10:19:54Z</time>
					</trkpt>
					<trkpt lat="45.777800" lon="4.449540">
						<ele>701</ele>
						<time>2026-04-15T10:20:01Z</time>
					</trkpt>
					<trkpt lat="45.777600" lon="4.449510">
						<ele>703</ele>
						<time>2026-04-15T10:20:05Z</time>
					</trkpt>
					<trkpt lat="45.777240" lon="4.449510">
						<ele>703</ele>
						<time>2026-04-15T10:20:11Z</time>
					</trkpt>
					<trkpt lat="45.777060" lon="4.449490">
						<ele>704</ele>
						<time>2026-04-15T10:20:15Z</time>
					</trkpt>
					<trkpt lat="45.776860" lon="4.449290">
						<ele>706</ele>
						<time>2026-04-15T10:20:19Z</time>
					</trkpt>
					<trkpt lat="45.776600" lon="4.448750">
						<ele>715</ele>
						<time>2026-04-15T10:20:27Z</time>
					</trkpt>
					<trkpt lat="45.776490" lon="4.448680">
						<ele>717</ele>
						<time>2026-04-15T10:20:29Z</time>
					</trkpt>
					<trkpt lat="45.776430" lon="4.448640">
						<ele>718</ele>
						<time>2026-04-15T10:20:30Z</time>
					</trkpt>
					<trkpt lat="45.776290" lon="4.448640">
						<ele>718</ele>
						<time>2026-04-15T10:20:33Z</time>
					</trkpt>
					<trkpt lat="45.776050" lon="4.448770">
						<ele>717</ele>
						<time>2026-04-15T10:20:37Z</time>
					</trkpt>
					<trkpt lat="45.775940" lon="4.448790">
						<ele>717</ele>
						<time>2026-04-15T10:20:39Z</time>
					</trkpt>
					<trkpt lat="45.775330" lon="4.448880">
						<ele>719</ele>
						<time>2026-04-15T10:20:50Z</time>
					</trkpt>
					<trkpt lat="45.775000" lon="4.448910">
						<ele>721</ele>
						<time>2026-04-15T10:20:56Z</time>
					</trkpt>
					<trkpt lat="45.774780" lon="4.448910">
						<ele>720</ele>
						<time>2026-04-15T10:21:00Z</time>
					</trkpt>
					<trkpt lat="45.774580" lon="4.448820">
						<ele>721</ele>
						<time>2026-04-15T10:21:04Z</time>
					</trkpt>
					<trkpt lat="45.774350" lon="4.448590">
						<ele>724</ele>
						<time>2026-04-15T10:21:09Z</time>
					</trkpt>
					<trkpt lat="45.774120" lon="4.448330">
						<ele>727</ele>
						<time>2026-04-15T10:21:14Z</time>
					</trkpt>
					<trkpt lat="45.773960" lon="4.448080">
						<ele>727</ele>
						<time>2026-04-15T10:21:18Z</time>
					</trkpt>
					<trkpt lat="45.773840" lon="4.447920">
						<ele>727</ele>
						<time>2026-04-15T10:21:21Z</time>
					</trkpt>
					<trkpt lat="45.773570" lon="4.447720">
						<ele>726</ele>
						<time>2026-04-15T10:21:27Z</time>
					</trkpt>
					<trkpt lat="45.773560" lon="4.447710">
						<ele>726</ele>
						<time>2026-04-15T10:21:27Z</time>
					</trkpt>
					<trkpt lat="45.773410" lon="4.447300">
						<ele>724</ele>
						<time>2026-04-15T10:21:32Z</time>
					</trkpt>
					<trkpt lat="45.773270" lon="4.447090">
						<ele>723</ele>
						<time>2026-04-15T10:21:36Z</time>
					</trkpt>
					<trkpt lat="45.773100" lon="4.446890">
						<ele>721</ele>
						<time>2026-04-15T10:21:40Z</time>
					</trkpt>
					<trkpt lat="45.772980" lon="4.446760">
						<ele>720</ele>
						<time>2026-04-15T10:21:43Z</time>
					</trkpt>
					<trkpt lat="45.772670" lon="4.446560">
						<ele>717</ele>
						<time>2026-04-15T10:21:49Z</time>
					</trkpt>
					<trkpt lat="45.772570" lon="4.446470">
						<ele>716</ele>
						<time>2026-04-15T10:21:51Z</time>
					</trkpt>
					<trkpt lat="45.772360" lon="4.446170">
						<ele>714</ele>
						<time>2026-04-15T10:21:56Z</time>
					</trkpt>
					<trkpt lat="45.772230" lon="4.446010">
						<ele>713</ele>
						<time>2026-04-15T10:21:59Z</time>
					</trkpt>
					<trkpt lat="45.772070" lon="4.445870">
						<ele>712</ele>
						<time>2026-04-15T10:22:02Z</time>
					</trkpt>
					<trkpt lat="45.771950" lon="4.445800">
						<ele>711</ele>
						<time>2026-04-15T10:22:05Z</time>
					</trkpt>
					<trkpt lat="45.771880" lon="4.445760">
						<ele>710</ele>
						<time>2026-04-15T10:22:06Z</time>
					</trkpt>
					<trkpt lat="45.771640" lon="4.445860">
						<ele>710</ele>
						<time>2026-04-15T10:22:11Z</time>
					</trkpt>
					<trkpt lat="45.771240" lon="4.445860">
						<ele>707</ele>
						<time>2026-04-15T10:22:18Z</time>
					</trkpt>
					<trkpt lat="45.771140" lon="4.445720">
						<ele>707</ele>
						<time>2026-04-15T10:22:20Z</time>
					</trkpt>
					<trkpt lat="45.771010" lon="4.445590">
						<ele>706</ele>
						<time>2026-04-15T10:22:23Z</time>
					</trkpt>
					<trkpt lat="45.770890" lon="4.445520">
						<ele>705</ele>
						<time>2026-04-15T10:22:25Z</time>
					</trkpt>
					<trkpt lat="45.770560" lon="4.445400">
						<ele>703</ele>
						<time>2026-04-15T10:22:31Z</time>
					</trkpt>
					<trkpt lat="45.770230" lon="4.445200">
						<ele>702</ele>
						<time>2026-04-15T10:22:38Z</time>
					</trkpt>
					<trkpt lat="45.769980" lon="4.444960">
						<ele>701</ele>
						<time>2026-04-15T10:22:43Z</time>
					</trkpt>
					<trkpt lat="45.769800" lon="4.444730">
						<ele>700</ele>
						<time>2026-04-15T10:22:47Z</time>
					</trkpt>
					<trkpt lat="45.769580" lon="4.444390">
						<ele>698</ele>
						<time>2026-04-15T10:22:53Z</time>
					</trkpt>
					<trkpt lat="45.769520" lon="4.444230">
						<ele>696</ele>
						<time>2026-04-15T10:22:55Z</time>
					</trkpt>
					<trkpt lat="45.769500" lon="4.444100">
						<ele>695</ele>
						<time>2026-04-15T10:22:57Z</time>
					</trkpt>
					<trkpt lat="45.769500" lon="4.443950">
						<ele>694</ele>
						<time>2026-04-15T10:22:59Z</time>
					</trkpt>
					<trkpt lat="45.769570" lon="4.443360">
						<ele>691</ele>
						<time>2026-04-15T10:23:06Z</time>
					</trkpt>
					<trkpt lat="45.769590" lon="4.443180">
						<ele>689</ele>
						<time>2026-04-15T10:23:09Z</time>
					</trkpt>
					<trkpt lat="45.769600" lon="4.442330">
						<ele>682</ele>
						<time>2026-04-15T10:23:19Z</time>
					</trkpt>
					<trkpt lat="45.769640" lon="4.441620">
						<ele>675</ele>
						<time>2026-04-15T10:23:28Z</time>
					</trkpt>
					<trkpt lat="45.769680" lon="4.441260">
						<ele>671</ele>
						<time>2026-04-15T10:23:33Z</time>
					</trkpt>
					<trkpt lat="45.769780" lon="4.440840">
						<ele>666</ele>
						<time>2026-04-15T10:23:38Z</time>
					</trkpt>
					<trkpt lat="45.769910" lon="4.440500">
						<ele>665</ele>
						<time>2026-04-15T10:23:43Z</time>
					</trkpt>
					<trkpt lat="45.769950" lon="4.440420">
						<ele>665</ele>
						<time>2026-04-15T10:23:44Z</time>
					</trkpt>
					<trkpt lat="45.770160" lon="4.440210">
						<ele>664</ele>
						<time>2026-04-15T10:23:49Z</time>
					</trkpt>
					<trkpt lat="45.770230" lon="4.440120">
						<ele>663</ele>
						<time>2026-04-15T10:23:50Z</time>
					</trkpt>
					<trkpt lat="45.770240" lon="4.440090">
						<ele>663</ele>
						<time>2026-04-15T10:23:51Z</time>
					</trkpt>
					<trkpt lat="45.770270" lon="4.439970">
						<ele>662</ele>
						<time>2026-04-15T10:23:52Z</time>
					</trkpt>
					<trkpt lat="45.770270" lon="4.439910">
						<ele>663</ele>
						<time>2026-04-15T10:23:53Z</time>
					</trkpt>
					<trkpt lat="45.770260" lon="4.439830">
						<ele>663</ele>
						<time>2026-04-15T10:23:54Z</time>
					</trkpt>
					<trkpt lat="45.770150" lon="4.439600">
						<ele>663</ele>
						<time>2026-04-15T10:23:58Z</time>
					</trkpt>
					<trkpt lat="45.769910" lon="4.439210">
						<ele>663</ele>
						<time>2026-04-15T10:24:04Z</time>
					</trkpt>
					<trkpt lat="45.769330" lon="4.438360">
						<ele>668</ele>
						<time>2026-04-15T10:24:19Z</time>
					</trkpt>
					<trkpt lat="45.769070" lon="4.437830">
						<ele>665</ele>
						<time>2026-04-15T10:24:27Z</time>
					</trkpt>
					<trkpt lat="45.769010" lon="4.437510">
						<ele>664</ele>
						<time>2026-04-15T10:24:31Z</time>
					</trkpt>
					<trkpt lat="45.768940" lon="4.437060">
						<ele>663</ele>
						<time>2026-04-15T10:24:37Z</time>
					</trkpt>
					<trkpt lat="45.768910" lon="4.436660">
						<ele>663</ele>
						<time>2026-04-15T10:24:42Z</time>
					</trkpt>
					<trkpt lat="45.768920" lon="4.436170">
						<ele>662</ele>
						<time>2026-04-15T10:24:48Z</time>
					</trkpt>
					<trkpt lat="45.768920" lon="4.435480">
						<ele>660</ele>
						<time>2026-04-15T10:24:56Z</time>
					</trkpt>
					<trkpt lat="45.768940" lon="4.435490">
						<ele>661</ele>
						<time>2026-04-15T10:24:57Z</time>
					</trkpt>
					<trkpt lat="45.768920" lon="4.435480">
						<ele>660</ele>
						<time>2026-04-15T10:24:57Z</time>
					</trkpt>
					<trkpt lat="45.768850" lon="4.435440">
						<ele>660</ele>
						<time>2026-04-15T10:24:58Z</time>
					</trkpt>
					<trkpt lat="45.768810" lon="4.435420">
						<ele>660</ele>
						<time>2026-04-15T10:24:59Z</time>
					</trkpt>
					<trkpt lat="45.768520" lon="4.435330">
						<ele>658</ele>
						<time>2026-04-15T10:25:04Z</time>
					</trkpt>
					<trkpt lat="45.768170" lon="4.435160">
						<ele>655</ele>
						<time>2026-04-15T10:25:11Z</time>
					</trkpt>
					<trkpt lat="45.767190" lon="4.434620">
						<ele>653</ele>
						<time>2026-04-15T10:25:30Z</time>
					</trkpt>
					<trkpt lat="45.767100" lon="4.434520">
						<ele>653</ele>
						<time>2026-04-15T10:25:32Z</time>
					</trkpt>
					<trkpt lat="45.766720" lon="4.433890">
						<ele>652</ele>
						<time>2026-04-15T10:25:42Z</time>
					</trkpt>
					<trkpt lat="45.766390" lon="4.433230">
						<ele>651</ele>
						<time>2026-04-15T10:25:52Z</time>
					</trkpt>
					<trkpt lat="45.766330" lon="4.433100">
						<ele>651</ele>
						<time>2026-04-15T10:25:54Z</time>
					</trkpt>
					<trkpt lat="45.766050" lon="4.432440">
						<ele>652</ele>
						<time>2026-04-15T10:26:04Z</time>
					</trkpt>
					<trkpt lat="45.765850" lon="4.432190">
						<ele>654</ele>
						<time>2026-04-15T10:26:08Z</time>
					</trkpt>
					<trkpt lat="45.765630" lon="4.431990">
						<ele>654</ele>
						<time>2026-04-15T10:26:13Z</time>
					</trkpt>
					<trkpt lat="45.765450" lon="4.431930">
						<ele>654</ele>
						<time>2026-04-15T10:26:16Z</time>
					</trkpt>
					<trkpt lat="45.765250" lon="4.431840">
						<ele>654</ele>
						<time>2026-04-15T10:26:20Z</time>
					</trkpt>
					<trkpt lat="45.765100" lon="4.431690">
						<ele>654</ele>
						<time>2026-04-15T10:26:23Z</time>
					</trkpt>
					<trkpt lat="45.764980" lon="4.431450">
						<ele>653</ele>
						<time>2026-04-15T10:26:27Z</time>
					</trkpt>
					<trkpt lat="45.764890" lon="4.431130">
						<ele>651</ele>
						<time>2026-04-15T10:26:31Z</time>
					</trkpt>
					<trkpt lat="45.764800" lon="4.430890">
						<ele>650</ele>
						<time>2026-04-15T10:26:35Z</time>
					</trkpt>
					<trkpt lat="45.764660" lon="4.430630">
						<ele>648</ele>
						<time>2026-04-15T10:26:39Z</time>
					</trkpt>
					<trkpt lat="45.764500" lon="4.430400">
						<ele>647</ele>
						<time>2026-04-15T10:26:43Z</time>
					</trkpt>
					<trkpt lat="45.764370" lon="4.430250">
						<ele>646</ele>
						<time>2026-04-15T10:26:46Z</time>
					</trkpt>
					<trkpt lat="45.764310" lon="4.430180">
						<ele>646</ele>
						<time>2026-04-15T10:26:47Z</time>
					</trkpt>
					<trkpt lat="45.764170" lon="4.429970">
						<ele>645</ele>
						<time>2026-04-15T10:26:51Z</time>
					</trkpt>
					<trkpt lat="45.763900" lon="4.429500">
						<ele>643</ele>
						<time>2026-04-15T10:26:58Z</time>
					</trkpt>
					<trkpt lat="45.763630" lon="4.428930">
						<ele>641</ele>
						<time>2026-04-15T10:27:07Z</time>
					</trkpt>
					<trkpt lat="45.763120" lon="4.427920">
						<ele>639</ele>
						<time>2026-04-15T10:27:22Z</time>
					</trkpt>
					<trkpt lat="45.762700" lon="4.427130">
						<ele>640</ele>
						<time>2026-04-15T10:27:35Z</time>
					</trkpt>
					<trkpt lat="45.762530" lon="4.426880">
						<ele>640</ele>
						<time>2026-04-15T10:27:39Z</time>
					</trkpt>
					<trkpt lat="45.762300" lon="4.426480">
						<ele>640</ele>
						<time>2026-04-15T10:27:45Z</time>
					</trkpt>
					<trkpt lat="45.762190" lon="4.426310">
						<ele>640</ele>
						<time>2026-04-15T10:27:48Z</time>
					</trkpt>
					<trkpt lat="45.762090" lon="4.426240">
						<ele>640</ele>
						<time>2026-04-15T10:27:50Z</time>
					</trkpt>
					<trkpt lat="45.761960" lon="4.426200">
						<ele>640</ele>
						<time>2026-04-15T10:27:53Z</time>
					</trkpt>
					<trkpt lat="45.760760" lon="4.426060">
						<ele>630</ele>
						<time>2026-04-15T10:28:14Z</time>
					</trkpt>
					<trkpt lat="45.760550" lon="4.425990">
						<ele>628</ele>
						<time>2026-04-15T10:28:18Z</time>
					</trkpt>
					<trkpt lat="45.760170" lon="4.425820">
						<ele>624</ele>
						<time>2026-04-15T10:28:25Z</time>
					</trkpt>
					<trkpt lat="45.760000" lon="4.425700">
						<ele>622</ele>
						<time>2026-04-15T10:28:28Z</time>
					</trkpt>
					<trkpt lat="45.759940" lon="4.425630">
						<ele>621</ele>
						<time>2026-04-15T10:28:30Z</time>
					</trkpt>
					<trkpt lat="45.759870" lon="4.425470">
						<ele>620</ele>
						<time>2026-04-15T10:28:32Z</time>
					</trkpt>
					<trkpt lat="45.759520" lon="4.424360">
						<ele>614</ele>
						<time>2026-04-15T10:28:47Z</time>
					</trkpt>
					<trkpt lat="45.759380" lon="4.424050">
						<ele>612</ele>
						<time>2026-04-15T10:28:52Z</time>
					</trkpt>
					<trkpt lat="45.759230" lon="4.423750">
						<ele>611</ele>
						<time>2026-04-15T10:28:56Z</time>
					</trkpt>
					<trkpt lat="45.759210" lon="4.423720">
						<ele>611</ele>
						<time>2026-04-15T10:28:57Z</time>
					</trkpt>
					<trkpt lat="45.758970" lon="4.423910">
						<ele>609</ele>
						<time>2026-04-15T10:29:02Z</time>
					</trkpt>
					<trkpt lat="45.758810" lon="4.423980">
						<ele>608</ele>
						<time>2026-04-15T10:29:05Z</time>
					</trkpt>
					<trkpt lat="45.758240" lon="4.424050">
						<ele>602</ele>
						<time>2026-04-15T10:29:15Z</time>
					</trkpt>
					<trkpt lat="45.757990" lon="4.424020">
						<ele>601</ele>
						<time>2026-04-15T10:29:19Z</time>
					</trkpt>
					<trkpt lat="45.757390" lon="4.423870">
						<ele>597</ele>
						<time>2026-04-15T10:29:30Z</time>
					</trkpt>
					<trkpt lat="45.756920" lon="4.423700">
						<ele>594</ele>
						<time>2026-04-15T10:29:39Z</time>
					</trkpt>
					<trkpt lat="45.756400" lon="4.423460">
						<ele>594</ele>
						<time>2026-04-15T10:29:48Z</time>
					</trkpt>
					<trkpt lat="45.756260" lon="4.423440">
						<ele>595</ele>
						<time>2026-04-15T10:29:51Z</time>
					</trkpt>
					<trkpt lat="45.756150" lon="4.423480">
						<ele>595</ele>
						<time>2026-04-15T10:29:53Z</time>
					</trkpt>
					<trkpt lat="45.756180" lon="4.423380">
						<ele>595</ele>
						<time>2026-04-15T10:29:54Z</time>
					</trkpt>
					<trkpt lat="45.756150" lon="4.423480">
						<ele>595</ele>
						<time>2026-04-15T10:29:56Z</time>
					</trkpt>
					<trkpt lat="45.756080" lon="4.423580">
						<ele>596</ele>
						<time>2026-04-15T10:29:57Z</time>
					</trkpt>
					<trkpt lat="45.756030" lon="4.423690">
						<ele>596</ele>
						<time>2026-04-15T10:29:59Z</time>
					</trkpt>
					<trkpt lat="45.755930" lon="4.423960">
						<ele>595</ele>
						<time>2026-04-15T10:30:03Z</time>
					</trkpt>
					<trkpt lat="45.755760" lon="4.424450">
						<ele>595</ele>
						<time>2026-04-15T10:30:10Z</time>
					</trkpt>
					<trkpt lat="45.755560" lon="4.424840">
						<ele>597</ele>
						<time>2026-04-15T10:30:16Z</time>
					</trkpt>
					<trkpt lat="45.755210" lon="4.425330">
						<ele>600</ele>
						<time>2026-04-15T10:30:24Z</time>
					</trkpt>
					<trkpt lat="45.755000" lon="4.425590">
						<ele>601</ele>
						<time>2026-04-15T10:30:29Z</time>
					</trkpt>
					<trkpt lat="45.754840" lon="4.425930">
						<ele>601</ele>
						<time>2026-04-15T10:30:34Z</time>
					</trkpt>
					<trkpt lat="45.754790" lon="4.425960">
						<ele>601</ele>
						<time>2026-04-15T10:30:35Z</time>
					</trkpt>
					<trkpt lat="45.754710" lon="4.426000">
						<ele>602</ele>
						<time>2026-04-15T10:30:37Z</time>
					</trkpt>
					<trkpt lat="45.754620" lon="4.425960">
						<ele>602</ele>
						<time>2026-04-15T10:30:39Z</time>
					</trkpt>
					<trkpt lat="45.754520" lon="4.425900">
						<ele>603</ele>
						<time>2026-04-15T10:30:40Z</time>
					</trkpt>
					<trkpt lat="45.754270" lon="4.425670">
						<ele>606</ele>
						<time>2026-04-15T10:30:46Z</time>
					</trkpt>
					<trkpt lat="45.753660" lon="4.425030">
						<ele>613</ele>
						<time>2026-04-15T10:30:59Z</time>
					</trkpt>
					<trkpt lat="45.753710" lon="4.424990">
						<ele>613</ele>
						<time>2026-04-15T10:31:00Z</time>
					</trkpt>
					<trkpt lat="45.753660" lon="4.425030">
						<ele>613</ele>
						<time>2026-04-15T10:31:01Z</time>
					</trkpt>
					<trkpt lat="45.753640" lon="4.425020">
						<ele>613</ele>
						<time>2026-04-15T10:31:02Z</time>
					</trkpt>
					<trkpt lat="45.753570" lon="4.424970">
						<ele>614</ele>
						<time>2026-04-15T10:31:03Z</time>
					</trkpt>
					<trkpt lat="45.753470" lon="4.424880">
						<ele>615</ele>
						<time>2026-04-15T10:31:05Z</time>
					</trkpt>
					<trkpt lat="45.753370" lon="4.424760">
						<ele>617</ele>
						<time>2026-04-15T10:31:07Z</time>
					</trkpt>
					<trkpt lat="45.753350" lon="4.424700">
						<ele>618</ele>
						<time>2026-04-15T10:31:08Z</time>
					</trkpt>
					<trkpt lat="45.753330" lon="4.424640">
						<ele>618</ele>
						<time>2026-04-15T10:31:09Z</time>
					</trkpt>
					<trkpt lat="45.753340" lon="4.424360">
						<ele>621</ele>
						<time>2026-04-15T10:31:13Z</time>
					</trkpt>
					<trkpt lat="45.753370" lon="4.423750">
						<ele>630</ele>
						<time>2026-04-15T10:31:20Z</time>
					</trkpt>
					<trkpt lat="45.753370" lon="4.423740">
						<ele>630</ele>
						<time>2026-04-15T10:31:20Z</time>
					</trkpt>
					<trkpt lat="45.753690" lon="4.423740">
						<ele>627</ele>
						<time>2026-04-15T10:31:26Z</time>
					</trkpt>
					<trkpt lat="45.753890" lon="4.423700">
						<ele>626</ele>
						<time>2026-04-15T10:31:30Z</time>
					</trkpt>
					<trkpt lat="45.754420" lon="4.423530">
						<ele>622</ele>
						<time>2026-04-15T10:31:39Z</time>
					</trkpt>
					<trkpt lat="45.754500" lon="4.423470">
						<ele>621</ele>
						<time>2026-04-15T10:31:41Z</time>
					</trkpt>
					<trkpt lat="45.754560" lon="4.423430">
						<ele>620</ele>
						<time>2026-04-15T10:31:42Z</time>
					</trkpt>
					<trkpt lat="45.754660" lon="4.423310">
						<ele>620</ele>
						<time>2026-04-15T10:31:44Z</time>
					</trkpt>
					<trkpt lat="45.755080" lon="4.422650">
						<ele>626</ele>
						<time>2026-04-15T10:31:55Z</time>
					</trkpt>
					<trkpt lat="45.755770" lon="4.422280">
						<ele>613</ele>
						<time>2026-04-15T10:32:09Z</time>
					</trkpt>
					<trkpt lat="45.755880" lon="4.422120">
						<ele>613</ele>
						<time>2026-04-15T10:32:11Z</time>
					</trkpt>
					<trkpt lat="45.755890" lon="4.422100">
						<ele>613</ele>
						<time>2026-04-15T10:32:12Z</time>
					</trkpt>
					<trkpt lat="45.755970" lon="4.421760">
						<ele>615</ele>
						<time>2026-04-15T10:32:16Z</time>
					</trkpt>
					<trkpt lat="45.755970" lon="4.421260">
						<ele>617</ele>
						<time>2026-04-15T10:32:22Z</time>
					</trkpt>
					<trkpt lat="45.755910" lon="4.419930">
						<ele>611</ele>
						<time>2026-04-15T10:32:39Z</time>
					</trkpt>
					<trkpt lat="45.755840" lon="4.419720">
						<ele>609</ele>
						<time>2026-04-15T10:32:42Z</time>
					</trkpt>
					<trkpt lat="45.755580" lon="4.419060">
						<ele>604</ele>
						<time>2026-04-15T10:32:51Z</time>
					</trkpt>
					<trkpt lat="45.755440" lon="4.418710">
						<ele>601</ele>
						<time>2026-04-15T10:32:56Z</time>
					</trkpt>
					<trkpt lat="45.755320" lon="4.418380">
						<ele>598</ele>
						<time>2026-04-15T10:33:01Z</time>
					</trkpt>
					<trkpt lat="45.755280" lon="4.418150">
						<ele>597</ele>
						<time>2026-04-15T10:33:04Z</time>
					</trkpt>
					<trkpt lat="45.755240" lon="4.417560">
						<ele>594</ele>
						<time>2026-04-15T10:33:11Z</time>
					</trkpt>
					<trkpt lat="45.755200" lon="4.417340">
						<ele>593</ele>
						<time>2026-04-15T10:33:14Z</time>
					</trkpt>
					<trkpt lat="45.755130" lon="4.417130">
						<ele>592</ele>
						<time>2026-04-15T10:33:17Z</time>
					</trkpt>
					<trkpt lat="45.754990" lon="4.416780">
						<ele>591</ele>
						<time>2026-04-15T10:33:22Z</time>
					</trkpt>
					<trkpt lat="45.754850" lon="4.416530">
						<ele>590</ele>
						<time>2026-04-15T10:33:26Z</time>
					</trkpt>
					<trkpt lat="45.754230" lon="4.415790">
						<ele>587</ele>
						<time>2026-04-15T10:33:40Z</time>
					</trkpt>
					<trkpt lat="45.754170" lon="4.415690">
						<ele>587</ele>
						<time>2026-04-15T10:33:42Z</time>
					</trkpt>
					<trkpt lat="45.754110" lon="4.415620">
						<ele>587</ele>
						<time>2026-04-15T10:33:43Z</time>
					</trkpt>
					<trkpt lat="45.754030" lon="4.415390">
						<ele>586</ele>
						<time>2026-04-15T10:33:46Z</time>
					</trkpt>
					<trkpt lat="45.753990" lon="4.415200">
						<ele>585</ele>
						<time>2026-04-15T10:33:49Z</time>
					</trkpt>
					<trkpt lat="45.753970" lon="4.414960">
						<ele>583</ele>
						<time>2026-04-15T10:33:52Z</time>
					</trkpt>
					<trkpt lat="45.753970" lon="4.414470">
						<ele>581</ele>
						<time>2026-04-15T10:33:58Z</time>
					</trkpt>
					<trkpt lat="45.753950" lon="4.413540">
						<ele>580</ele>
						<time>2026-04-15T10:34:09Z</time>
					</trkpt>
					<trkpt lat="45.753950" lon="4.413440">
						<ele>580</ele>
						<time>2026-04-15T10:34:11Z</time>
					</trkpt>
					<trkpt lat="45.753930" lon="4.413250">
						<ele>581</ele>
						<time>2026-04-15T10:34:13Z</time>
					</trkpt>
					<trkpt lat="45.753850" lon="4.413040">
						<ele>582</ele>
						<time>2026-04-15T10:34:16Z</time>
					</trkpt>
					<trkpt lat="45.753770" lon="4.412890">
						<ele>583</ele>
						<time>2026-04-15T10:34:18Z</time>
					</trkpt>
					<trkpt lat="45.753630" lon="4.412690">
						<ele>583</ele>
						<time>2026-04-15T10:34:22Z</time>
					</trkpt>
					<trkpt lat="45.753540" lon="4.412500">
						<ele>582</ele>
						<time>2026-04-15T10:34:25Z</time>
					</trkpt>
					<trkpt lat="45.753480" lon="4.412300">
						<ele>583</ele>
						<time>2026-04-15T10:34:27Z</time>
					</trkpt>
					<trkpt lat="45.753400" lon="4.411920">
						<ele>583</ele>
						<time>2026-04-15T10:34:32Z</time>
					</trkpt>
					<trkpt lat="45.753310" lon="4.411410">
						<ele>583</ele>
						<time>2026-04-15T10:34:39Z</time>
					</trkpt>
					<trkpt lat="45.753200" lon="4.410970">
						<ele>584</ele>
						<time>2026-04-15T10:34:45Z</time>
					</trkpt>
					<trkpt lat="45.753110" lon="4.410660">
						<ele>584</ele>
						<time>2026-04-15T10:34:49Z</time>
					</trkpt>
					<trkpt lat="45.753070" lon="4.410440">
						<ele>584</ele>
						<time>2026-04-15T10:34:52Z</time>
					</trkpt>
					<trkpt lat="45.753090" lon="4.410260">
						<ele>585</ele>
						<time>2026-04-15T10:34:54Z</time>
					</trkpt>
					<trkpt lat="45.753110" lon="4.410100">
						<ele>586</ele>
						<time>2026-04-15T10:34:56Z</time>
					</trkpt>
					<trkpt lat="45.753180" lon="4.409940">
						<ele>587</ele>
						<time>2026-04-15T10:34:58Z</time>
					</trkpt>
					<trkpt lat="45.753490" lon="4.409240">
						<ele>589</ele>
						<time>2026-04-15T10:35:09Z</time>
					</trkpt>
					<trkpt lat="45.753520" lon="4.409110">
						<ele>589</ele>
						<time>2026-04-15T10:35:10Z</time>
					</trkpt>
					<trkpt lat="45.753540" lon="4.408990">
						<ele>589</ele>
						<time>2026-04-15T10:35:12Z</time>
					</trkpt>
					<trkpt lat="45.753560" lon="4.408790">
						<ele>590</ele>
						<time>2026-04-15T10:35:14Z</time>
					</trkpt>
					<trkpt lat="45.753550" lon="4.408550">
						<ele>590</ele>
						<time>2026-04-15T10:35:17Z</time>
					</trkpt>
					<trkpt lat="45.753500" lon="4.408280">
						<ele>590</ele>
						<time>2026-04-15T10:35:21Z</time>
					</trkpt>
					<trkpt lat="45.753170" lon="4.407240">
						<ele>593</ele>
						<time>2026-04-15T10:35:35Z</time>
					</trkpt>
					<trkpt lat="45.753070" lon="4.407020">
						<ele>594</ele>
						<time>2026-04-15T10:35:38Z</time>
					</trkpt>
					<trkpt lat="45.752810" lon="4.406600">
						<ele>594</ele>
						<time>2026-04-15T10:35:45Z</time>
					</trkpt>
					<trkpt lat="45.752660" lon="4.406270">
						<ele>594</ele>
						<time>2026-04-15T10:35:50Z</time>
					</trkpt>
					<trkpt lat="45.752610" lon="4.406080">
						<ele>595</ele>
						<time>2026-04-15T10:35:53Z</time>
					</trkpt>
					<trkpt lat="45.752570" lon="4.405930">
						<ele>596</ele>
						<time>2026-04-15T10:35:55Z</time>
					</trkpt>
					<trkpt lat="45.752510" lon="4.405640">
						<ele>597</ele>
						<time>2026-04-15T10:35:58Z</time>
					</trkpt>
					<trkpt lat="45.752500" lon="4.405390">
						<ele>599</ele>
						<time>2026-04-15T10:36:01Z</time>
					</trkpt>
					<trkpt lat="45.752550" lon="4.404750">
						<ele>602</ele>
						<time>2026-04-15T10:36:09Z</time>
					</trkpt>
					<trkpt lat="45.752530" lon="4.404510">
						<ele>602</ele>
						<time>2026-04-15T10:36:12Z</time>
					</trkpt>
					<trkpt lat="45.752290" lon="4.403590">
						<ele>602</ele>
						<time>2026-04-15T10:36:25Z</time>
					</trkpt>
					<trkpt lat="45.752250" lon="4.403250">
						<ele>602</ele>
						<time>2026-04-15T10:36:29Z</time>
					</trkpt>
					<trkpt lat="45.752270" lon="4.402940">
						<ele>601</ele>
						<time>2026-04-15T10:36:33Z</time>
					</trkpt>
					<trkpt lat="45.752330" lon="4.402670">
						<ele>601</ele>
						<time>2026-04-15T10:36:36Z</time>
					</trkpt>
					<trkpt lat="45.752460" lon="4.402450">
						<ele>600</ele>
						<time>2026-04-15T10:36:40Z</time>
					</trkpt>
					<trkpt lat="45.752560" lon="4.402340">
						<ele>599</ele>
						<time>2026-04-15T10:36:42Z</time>
					</trkpt>
					<trkpt lat="45.752760" lon="4.402150">
						<ele>598</ele>
						<time>2026-04-15T10:36:46Z</time>
					</trkpt>
					<trkpt lat="45.753020" lon="4.401970">
						<ele>598</ele>
						<time>2026-04-15T10:36:52Z</time>
					</trkpt>
					<trkpt lat="45.753140" lon="4.401880">
						<ele>598</ele>
						<time>2026-04-15T10:36:54Z</time>
					</trkpt>
					<trkpt lat="45.753290" lon="4.401720">
						<ele>597</ele>
						<time>2026-04-15T10:36:57Z</time>
					</trkpt>
					<trkpt lat="45.753400" lon="4.401530">
						<ele>597</ele>
						<time>2026-04-15T10:37:00Z</time>
					</trkpt>
					<trkpt lat="45.753460" lon="4.401390">
						<ele>597</ele>
						<time>2026-04-15T10:37:02Z</time>
					</trkpt>
					<trkpt lat="45.753510" lon="4.401200">
						<ele>597</ele>
						<time>2026-04-15T10:37:05Z</time>
					</trkpt>
					<trkpt lat="45.753560" lon="4.400580">
						<ele>595</ele>
						<time>2026-04-15T10:37:13Z</time>
					</trkpt>
					<trkpt lat="45.753600" lon="4.400380">
						<ele>594</ele>
						<time>2026-04-15T10:37:15Z</time>
					</trkpt>
					<trkpt lat="45.753670" lon="4.400170">
						<ele>593</ele>
						<time>2026-04-15T10:37:18Z</time>
					</trkpt>
					<trkpt lat="45.753770" lon="4.399990">
						<ele>593</ele>
						<time>2026-04-15T10:37:21Z</time>
					</trkpt>
					<trkpt lat="45.753920" lon="4.399790">
						<ele>591</ele>
						<time>2026-04-15T10:37:25Z</time>
					</trkpt>
					<trkpt lat="45.754200" lon="4.399630">
						<ele>590</ele>
						<time>2026-04-15T10:37:30Z</time>
					</trkpt>
					<trkpt lat="45.754530" lon="4.399520">
						<ele>589</ele>
						<time>2026-04-15T10:37:36Z</time>
					</trkpt>
					<trkpt lat="45.754640" lon="4.399510">
						<ele>589</ele>
						<time>2026-04-15T10:37:38Z</time>
					</trkpt>
					<trkpt lat="45.754770" lon="4.399520">
						<ele>590</ele>
						<time>2026-04-15T10:37:40Z</time>
					</trkpt>
					<trkpt lat="45.755100" lon="4.399630">
						<ele>592</ele>
						<time>2026-04-15T10:37:46Z</time>
					</trkpt>
					<trkpt lat="45.755380" lon="4.399650">
						<ele>593</ele>
						<time>2026-04-15T10:37:51Z</time>
					</trkpt>
					<trkpt lat="45.755480" lon="4.399610">
						<ele>593</ele>
						<time>2026-04-15T10:37:53Z</time>
					</trkpt>
					<trkpt lat="45.755570" lon="4.399520">
						<ele>593</ele>
						<time>2026-04-15T10:37:55Z</time>
					</trkpt>
					<trkpt lat="45.755680" lon="4.399330">
						<ele>593</ele>
						<time>2026-04-15T10:37:58Z</time>
					</trkpt>
					<trkpt lat="45.755720" lon="4.399080">
						<ele>591</ele>
						<time>2026-04-15T10:38:01Z</time>
					</trkpt>
					<trkpt lat="45.755700" lon="4.398680">
						<ele>588</ele>
						<time>2026-04-15T10:38:06Z</time>
					</trkpt>
					<trkpt lat="45.755720" lon="4.398560">
						<ele>587</ele>
						<time>2026-04-15T10:38:08Z</time>
					</trkpt>
					<trkpt lat="45.755780" lon="4.398450">
						<ele>587</ele>
						<time>2026-04-15T10:38:10Z</time>
					</trkpt>
					<trkpt lat="45.755850" lon="4.398350">
						<ele>586</ele>
						<time>2026-04-15T10:38:11Z</time>
					</trkpt>
					<trkpt lat="45.755920" lon="4.398300">
						<ele>586</ele>
						<time>2026-04-15T10:38:13Z</time>
					</trkpt>
					<trkpt lat="45.756040" lon="4.398240">
						<ele>585</ele>
						<time>2026-04-15T10:38:15Z</time>
					</trkpt>
					<trkpt lat="45.756340" lon="4.398190">
						<ele>585</ele>
						<time>2026-04-15T10:38:20Z</time>
					</trkpt>
					<trkpt lat="45.756460" lon="4.398130">
						<ele>585</ele>
						<time>2026-04-15T10:38:23Z</time>
					</trkpt>
					<trkpt lat="45.756550" lon="4.398070">
						<ele>584</ele>
						<time>2026-04-15T10:38:24Z</time>
					</trkpt>
					<trkpt lat="45.756700" lon="4.397900">
						<ele>582</ele>
						<time>2026-04-15T10:38:28Z</time>
					</trkpt>
					<trkpt lat="45.756930" lon="4.397750">
						<ele>581</ele>
						<time>2026-04-15T10:38:32Z</time>
					</trkpt>
					<trkpt lat="45.757120" lon="4.397660">
						<ele>580</ele>
						<time>2026-04-15T10:38:36Z</time>
					</trkpt>
					<trkpt lat="45.757280" lon="4.397650">
						<ele>581</ele>
						<time>2026-04-15T10:38:39Z</time>
					</trkpt>
					<trkpt lat="45.757560" lon="4.397700">
						<ele>583</ele>
						<time>2026-04-15T10:38:44Z</time>
					</trkpt>
					<trkpt lat="45.757740" lon="4.397700">
						<ele>583</ele>
						<time>2026-04-15T10:38:47Z</time>
					</trkpt>
					<trkpt lat="45.757870" lon="4.397680">
						<ele>583</ele>
						<time>2026-04-15T10:38:49Z</time>
					</trkpt>
					<trkpt lat="45.758040" lon="4.397600">
						<ele>581</ele>
						<time>2026-04-15T10:38:52Z</time>
					</trkpt>
					<trkpt lat="45.758200" lon="4.397490">
						<ele>580</ele>
						<time>2026-04-15T10:38:56Z</time>
					</trkpt>
					<trkpt lat="45.758350" lon="4.397320">
						<ele>578</ele>
						<time>2026-04-15T10:38:59Z</time>
					</trkpt>
					<trkpt lat="45.758800" lon="4.396520">
						<ele>575</ele>
						<time>2026-04-15T10:39:12Z</time>
					</trkpt>
					<trkpt lat="45.758890" lon="4.396390">
						<ele>575</ele>
						<time>2026-04-15T10:39:14Z</time>
					</trkpt>
					<trkpt lat="45.759020" lon="4.396270">
						<ele>574</ele>
						<time>2026-04-15T10:39:17Z</time>
					</trkpt>
					<trkpt lat="45.760030" lon="4.395590">
						<ele>571</ele>
						<time>2026-04-15T10:39:37Z</time>
					</trkpt>
					<trkpt lat="45.760160" lon="4.395530">
						<ele>570</ele>
						<time>2026-04-15T10:39:39Z</time>
					</trkpt>
					<trkpt lat="45.760290" lon="4.395490">
						<ele>570</ele>
						<time>2026-04-15T10:39:41Z</time>
					</trkpt>
					<trkpt lat="45.760430" lon="4.395490">
						<ele>571</ele>
						<time>2026-04-15T10:39:44Z</time>
					</trkpt>
					<trkpt lat="45.760670" lon="4.395450">
						<ele>571</ele>
						<time>2026-04-15T10:39:48Z</time>
					</trkpt>
					<trkpt lat="45.761190" lon="4.395260">
						<ele>569</ele>
						<time>2026-04-15T10:39:58Z</time>
					</trkpt>
					<trkpt lat="45.761430" lon="4.395130">
						<ele>568</ele>
						<time>2026-04-15T10:40:02Z</time>
					</trkpt>
					<trkpt lat="45.761610" lon="4.394990">
						<ele>567</ele>
						<time>2026-04-15T10:40:06Z</time>
					</trkpt>
					<trkpt lat="45.762010" lon="4.394500">
						<ele>562</ele>
						<time>2026-04-15T10:40:15Z</time>
					</trkpt>
					<trkpt lat="45.762130" lon="4.394380">
						<ele>560</ele>
						<time>2026-04-15T10:40:18Z</time>
					</trkpt>
					<trkpt lat="45.762250" lon="4.394310">
						<ele>560</ele>
						<time>2026-04-15T10:40:20Z</time>
					</trkpt>
					<trkpt lat="45.762420" lon="4.394280">
						<ele>560</ele>
						<time>2026-04-15T10:40:23Z</time>
					</trkpt>
					<trkpt lat="45.762610" lon="4.394300">
						<ele>559</ele>
						<time>2026-04-15T10:40:27Z</time>
					</trkpt>
					<trkpt lat="45.762820" lon="4.394410">
						<ele>559</ele>
						<time>2026-04-15T10:40:31Z</time>
					</trkpt>
					<trkpt lat="45.763000" lon="4.394560">
						<ele>559</ele>
						<time>2026-04-15T10:40:34Z</time>
					</trkpt>
					<trkpt lat="45.763100" lon="4.394730">
						<ele>560</ele>
						<time>2026-04-15T10:40:37Z</time>
					</trkpt>
					<trkpt lat="45.763280" lon="4.395140">
						<ele>563</ele>
						<time>2026-04-15T10:40:43Z</time>
					</trkpt>
					<trkpt lat="45.763450" lon="4.395460">
						<ele>564</ele>
						<time>2026-04-15T10:40:48Z</time>
					</trkpt>
					<trkpt lat="45.763570" lon="4.395730">
						<ele>565</ele>
						<time>2026-04-15T10:40:52Z</time>
					</trkpt>
					<trkpt lat="45.763700" lon="4.396160">
						<ele>567</ele>
						<time>2026-04-15T10:40:58Z</time>
					</trkpt>
					<trkpt lat="45.763880" lon="4.396540">
						<ele>566</ele>
						<time>2026-04-15T10:41:04Z</time>
					</trkpt>
					<trkpt lat="45.764030" lon="4.396720">
						<ele>564</ele>
						<time>2026-04-15T10:41:07Z</time>
					</trkpt>
					<trkpt lat="45.764190" lon="4.396860">
						<ele>563</ele>
						<time>2026-04-15T10:41:10Z</time>
					</trkpt>
					<trkpt lat="45.764380" lon="4.396950">
						<ele>564</ele>
						<time>2026-04-15T10:41:14Z</time>
					</trkpt>
					<trkpt lat="45.764470" lon="4.396980">
						<ele>564</ele>
						<time>2026-04-15T10:41:16Z</time>
					</trkpt>
					<trkpt lat="45.764550" lon="4.397000">
						<ele>563</ele>
						<time>2026-04-15T10:41:17Z</time>
					</trkpt>
					<trkpt lat="45.765390" lon="4.397020">
						<ele>558</ele>
						<time>2026-04-15T10:41:32Z</time>
					</trkpt>
					<trkpt lat="45.765770" lon="4.397020">
						<ele>556</ele>
						<time>2026-04-15T10:41:39Z</time>
					</trkpt>
					<trkpt lat="45.765920" lon="4.396960">
						<ele>555</ele>
						<time>2026-04-15T10:41:42Z</time>
					</trkpt>
					<trkpt lat="45.766040" lon="4.396900">
						<ele>555</ele>
						<time>2026-04-15T10:41:44Z</time>
					</trkpt>
					<trkpt lat="45.766190" lon="4.396730">
						<ele>554</ele>
						<time>2026-04-15T10:41:47Z</time>
					</trkpt>
					<trkpt lat="45.766270" lon="4.396600">
						<ele>555</ele>
						<time>2026-04-15T10:41:49Z</time>
					</trkpt>
					<trkpt lat="45.766330" lon="4.396480">
						<ele>556</ele>
						<time>2026-04-15T10:41:51Z</time>
					</trkpt>
					<trkpt lat="45.766360" lon="4.396340">
						<ele>557</ele>
						<time>2026-04-15T10:41:53Z</time>
					</trkpt>
					<trkpt lat="45.766350" lon="4.396210">
						<ele>558</ele>
						<time>2026-04-15T10:41:55Z</time>
					</trkpt>
					<trkpt lat="45.766300" lon="4.396100">
						<ele>558</ele>
						<time>2026-04-15T10:41:56Z</time>
					</trkpt>
					<trkpt lat="45.766220" lon="4.395990">
						<ele>558</ele>
						<time>2026-04-15T10:41:58Z</time>
					</trkpt>
					<trkpt lat="45.766040" lon="4.395840">
						<ele>556</ele>
						<time>2026-04-15T10:42:02Z</time>
					</trkpt>
					<trkpt lat="45.765940" lon="4.395730">
						<ele>556</ele>
						<time>2026-04-15T10:42:04Z</time>
					</trkpt>
					<trkpt lat="45.765860" lon="4.395560">
						<ele>556</ele>
						<time>2026-04-15T10:42:07Z</time>
					</trkpt>
					<trkpt lat="45.765830" lon="4.395500">
						<ele>556</ele>
						<time>2026-04-15T10:42:08Z</time>
					</trkpt>
					<trkpt lat="45.765690" lon="4.395050">
						<ele>558</ele>
						<time>2026-04-15T10:42:14Z</time>
					</trkpt>
					<trkpt lat="45.765540" lon="4.394760">
						<ele>562</ele>
						<time>2026-04-15T10:42:18Z</time>
					</trkpt>
					<trkpt lat="45.765400" lon="4.394580">
						<ele>564</ele>
						<time>2026-04-15T10:42:22Z</time>
					</trkpt>
					<trkpt lat="45.765130" lon="4.394260">
						<ele>567</ele>
						<time>2026-04-15T10:42:28Z</time>
					</trkpt>
					<trkpt lat="45.764920" lon="4.394040">
						<ele>568</ele>
						<time>2026-04-15T10:42:32Z</time>
					</trkpt>
					<trkpt lat="45.764810" lon="4.393900">
						<ele>569</ele>
						<time>2026-04-15T10:42:35Z</time>
					</trkpt>
					<trkpt lat="45.764730" lon="4.393750">
						<ele>570</ele>
						<time>2026-04-15T10:42:37Z</time>
					</trkpt>
					<trkpt lat="45.764610" lon="4.393470">
						<ele>571</ele>
						<time>2026-04-15T10:42:42Z</time>
					</trkpt>
					<trkpt lat="45.764520" lon="4.393230">
						<ele>573</ele>
						<time>2026-04-15T10:42:45Z</time>
					</trkpt>
					<trkpt lat="45.764380" lon="4.392990">
						<ele>572</ele>
						<time>2026-04-15T10:42:49Z</time>
					</trkpt>
					<trkpt lat="45.764230" lon="4.392710">
						<ele>572</ele>
						<time>2026-04-15T10:42:53Z</time>
					</trkpt>
					<trkpt lat="45.764110" lon="4.392440">
						<ele>572</ele>
						<time>2026-04-15T10:42:57Z</time>
					</trkpt>
					<trkpt lat="45.764060" lon="4.392250">
						<ele>570</ele>
						<time>2026-04-15T10:43:00Z</time>
					</trkpt>
					<trkpt lat="45.764040" lon="4.392110">
						<ele>569</ele>
						<time>2026-04-15T10:43:01Z</time>
					</trkpt>
					<trkpt lat="45.764040" lon="4.392000">
						<ele>569</ele>
						<time>2026-04-15T10:43:03Z</time>
					</trkpt>
					<trkpt lat="45.764060" lon="4.391880">
						<ele>570</ele>
						<time>2026-04-15T10:43:04Z</time>
					</trkpt>
					<trkpt lat="45.764090" lon="4.391790">
						<ele>570</ele>
						<time>2026-04-15T10:43:06Z</time>
					</trkpt>
					<trkpt lat="45.764150" lon="4.391670">
						<ele>572</ele>
						<time>2026-04-15T10:43:07Z</time>
					</trkpt>
					<trkpt lat="45.764440" lon="4.391270">
						<ele>576</ele>
						<time>2026-04-15T10:43:15Z</time>
					</trkpt>
					<trkpt lat="45.764580" lon="4.391000">
						<ele>577</ele>
						<time>2026-04-15T10:43:19Z</time>
					</trkpt>
					<trkpt lat="45.764710" lon="4.390650">
						<ele>577</ele>
						<time>2026-04-15T10:43:24Z</time>
					</trkpt>
					<trkpt lat="45.764980" lon="4.389750">
						<ele>579</ele>
						<time>2026-04-15T10:43:36Z</time>
					</trkpt>
					<trkpt lat="45.765050" lon="4.389600">
						<ele>580</ele>
						<time>2026-04-15T10:43:38Z</time>
					</trkpt>
					<trkpt lat="45.765150" lon="4.389470">
						<ele>581</ele>
						<time>2026-04-15T10:43:40Z</time>
					</trkpt>
					<trkpt lat="45.765330" lon="4.389260">
						<ele>583</ele>
						<time>2026-04-15T10:43:45Z</time>
					</trkpt>
					<trkpt lat="45.765800" lon="4.388820">
						<ele>585</ele>
						<time>2026-04-15T10:43:55Z</time>
					</trkpt>
					<trkpt lat="45.765870" lon="4.388690">
						<ele>584</ele>
						<time>2026-04-15T10:43:57Z</time>
					</trkpt>
					<trkpt lat="45.765880" lon="4.388660">
						<ele>583</ele>
						<time>2026-04-15T10:43:57Z</time>
					</trkpt>
					<trkpt lat="45.765870" lon="4.388690">
						<ele>584</ele>
						<time>2026-04-15T10:43:57Z</time>
					</trkpt>
					<trkpt lat="45.765780" lon="4.388410">
						<ele>582</ele>
						<time>2026-04-15T10:44:01Z</time>
					</trkpt>
					<trkpt lat="45.765620" lon="4.388070">
						<ele>582</ele>
						<time>2026-04-15T10:44:06Z</time>
					</trkpt>
					<trkpt lat="45.765490" lon="4.387580">
						<ele>583</ele>
						<time>2026-04-15T10:44:13Z</time>
					</trkpt>
					<trkpt lat="45.765460" lon="4.387400">
						<ele>584</ele>
						<time>2026-04-15T10:44:15Z</time>
					</trkpt>
					<trkpt lat="45.765510" lon="4.387260">
						<ele>585</ele>
						<time>2026-04-15T10:44:17Z</time>
					</trkpt>
					<trkpt lat="45.765920" lon="4.386590">
						<ele>589</ele>
						<time>2026-04-15T10:44:28Z</time>
					</trkpt>
					<trkpt lat="45.766490" lon="4.385810">
						<ele>591</ele>
						<time>2026-04-15T10:44:42Z</time>
					</trkpt>
					<trkpt lat="45.766590" lon="4.385540">
						<ele>591</ele>
						<time>2026-04-15T10:44:46Z</time>
					</trkpt>
					<trkpt lat="45.766710" lon="4.385050">
						<ele>593</ele>
						<time>2026-04-15T10:44:52Z</time>
					</trkpt>
					<trkpt lat="45.766850" lon="4.384290">
						<ele>591</ele>
						<time>2026-04-15T10:45:02Z</time>
					</trkpt>
					<trkpt lat="45.766890" lon="4.384030">
						<ele>590</ele>
						<time>2026-04-15T10:45:06Z</time>
					</trkpt>
					<trkpt lat="45.766910" lon="4.383730">
						<ele>591</ele>
						<time>2026-04-15T10:45:09Z</time>
					</trkpt>
					<trkpt lat="45.767000" lon="4.383290">
						<ele>592</ele>
						<time>2026-04-15T10:45:15Z</time>
					</trkpt>
					<trkpt lat="45.767070" lon="4.383080">
						<ele>592</ele>
						<time>2026-04-15T10:45:18Z</time>
					</trkpt>
					<trkpt lat="45.767130" lon="4.382890">
						<ele>593</ele>
						<time>2026-04-15T10:45:20Z</time>
					</trkpt>
					<trkpt lat="45.767260" lon="4.382580">
						<ele>594</ele>
						<time>2026-04-15T10:45:25Z</time>
					</trkpt>
					<trkpt lat="45.767620" lon="4.382020">
						<ele>599</ele>
						<time>2026-04-15T10:45:34Z</time>
					</trkpt>
					<trkpt lat="45.767730" lon="4.381850">
						<ele>600</ele>
						<time>2026-04-15T10:45:37Z</time>
					</trkpt>
					<trkpt lat="45.768020" lon="4.381660">
						<ele>601</ele>
						<time>2026-04-15T10:45:43Z</time>
					</trkpt>
					<trkpt lat="45.768250" lon="4.381370">
						<ele>601</ele>
						<time>2026-04-15T10:45:48Z</time>
					</trkpt>
					<trkpt lat="45.768380" lon="4.381090">
						<ele>602</ele>
						<time>2026-04-15T10:45:53Z</time>
					</trkpt>
					<trkpt lat="45.768450" lon="4.380730">
						<ele>602</ele>
						<time>2026-04-15T10:45:57Z</time>
					</trkpt>
					<trkpt lat="45.768470" lon="4.380250">
						<ele>601</ele>
						<time>2026-04-15T10:46:03Z</time>
					</trkpt>
					<trkpt lat="45.768450" lon="4.379850">
						<ele>601</ele>
						<time>2026-04-15T10:46:08Z</time>
					</trkpt>
					<trkpt lat="45.768470" lon="4.379640">
						<ele>601</ele>
						<time>2026-04-15T10:46:11Z</time>
					</trkpt>
					<trkpt lat="45.768510" lon="4.379360">
						<ele>601</ele>
						<time>2026-04-15T10:46:14Z</time>
					</trkpt>
					<trkpt lat="45.768660" lon="4.378610">
						<ele>597</ele>
						<time>2026-04-15T10:46:24Z</time>
					</trkpt>
					<trkpt lat="45.768670" lon="4.378310">
						<ele>596</ele>
						<time>2026-04-15T10:46:28Z</time>
					</trkpt>
					<trkpt lat="45.768640" lon="4.377770">
						<ele>592</ele>
						<time>2026-04-15T10:46:34Z</time>
					</trkpt>
					<trkpt lat="45.768650" lon="4.377360">
						<ele>587</ele>
						<time>2026-04-15T10:46:40Z</time>
					</trkpt>
					<trkpt lat="45.768670" lon="4.376820">
						<ele>581</ele>
						<time>2026-04-15T10:46:46Z</time>
					</trkpt>
					<trkpt lat="45.768680" lon="4.376690">
						<ele>580</ele>
						<time>2026-04-15T10:46:48Z</time>
					</trkpt>
					<trkpt lat="45.768700" lon="4.376500">
						<ele>578</ele>
						<time>2026-04-15T10:46:50Z</time>
					</trkpt>
					<trkpt lat="45.768770" lon="4.376220">
						<ele>576</ele>
						<time>2026-04-15T10:46:54Z</time>
					</trkpt>
					<trkpt lat="45.768830" lon="4.375860">
						<ele>573</ele>
						<time>2026-04-15T10:46:59Z</time>
					</trkpt>
					<trkpt lat="45.768870" lon="4.375600">
						<ele>571</ele>
						<time>2026-04-15T10:47:02Z</time>
					</trkpt>
					<trkpt lat="45.768860" lon="4.375250">
						<ele>569</ele>
						<time>2026-04-15T10:47:06Z</time>
					</trkpt>
					<trkpt lat="45.768840" lon="4.375030">
						<ele>568</ele>
						<time>2026-04-15T10:47:09Z</time>
					</trkpt>
					<trkpt lat="45.768780" lon="4.374700">
						<ele>566</ele>
						<time>2026-04-15T10:47:13Z</time>
					</trkpt>
					<trkpt lat="45.768660" lon="4.374240">
						<ele>562</ele>
						<time>2026-04-15T10:47:19Z</time>
					</trkpt>
					<trkpt lat="45.768960" lon="4.373480">
						<ele>558</ele>
						<time>2026-04-15T10:47:30Z</time>
					</trkpt>
					<trkpt lat="45.769040" lon="4.373350">
						<ele>558</ele>
						<time>2026-04-15T10:47:32Z</time>
					</trkpt>
					<trkpt lat="45.769140" lon="4.373250">
						<ele>558</ele>
						<time>2026-04-15T10:47:34Z</time>
					</trkpt>
					<trkpt lat="45.769520" lon="4.372990">
						<ele>554</ele>
						<time>2026-04-15T10:47:42Z</time>
					</trkpt>
					<trkpt lat="45.769640" lon="4.372980">
						<ele>553</ele>
						<time>2026-04-15T10:47:44Z</time>
					</trkpt>
					<trkpt lat="45.769850" lon="4.373030">
						<ele>551</ele>
						<time>2026-04-15T10:47:48Z</time>
					</trkpt>
					<trkpt lat="45.769930" lon="4.373070">
						<ele>550</ele>
						<time>2026-04-15T10:47:49Z</time>
					</trkpt>
					<trkpt lat="45.769970" lon="4.373090">
						<ele>550</ele>
						<time>2026-04-15T10:47:50Z</time>
					</trkpt>
					<trkpt lat="45.770080" lon="4.373190">
						<ele>548</ele>
						<time>2026-04-15T10:47:52Z</time>
					</trkpt>
					<trkpt lat="45.770270" lon="4.373390">
						<ele>545</ele>
						<time>2026-04-15T10:47:57Z</time>
					</trkpt>
					<trkpt lat="45.770520" lon="4.373660">
						<ele>541</ele>
						<time>2026-04-15T10:48:02Z</time>
					</trkpt>
					<trkpt lat="45.770710" lon="4.373750">
						<ele>537</ele>
						<time>2026-04-15T10:48:06Z</time>
					</trkpt>
					<trkpt lat="45.770900" lon="4.373800">
						<ele>534</ele>
						<time>2026-04-15T10:48:09Z</time>
					</trkpt>
					<trkpt lat="45.770990" lon="4.373770">
						<ele>533</ele>
						<time>2026-04-15T10:48:11Z</time>
					</trkpt>
					<trkpt lat="45.771080" lon="4.373690">
						<ele>531</ele>
						<time>2026-04-15T10:48:13Z</time>
					</trkpt>
					<trkpt lat="45.771230" lon="4.373520">
						<ele>529</ele>
						<time>2026-04-15T10:48:16Z</time>
					</trkpt>
					<trkpt lat="45.771310" lon="4.373470">
						<ele>527</ele>
						<time>2026-04-15T10:48:18Z</time>
					</trkpt>
					<trkpt lat="45.771390" lon="4.373480">
						<ele>526</ele>
						<time>2026-04-15T10:48:19Z</time>
					</trkpt>
					<trkpt lat="45.771460" lon="4.373530">
						<ele>525</ele>
						<time>2026-04-15T10:48:20Z</time>
					</trkpt>
					<trkpt lat="45.771500" lon="4.373610">
						<ele>525</ele>
						<time>2026-04-15T10:48:22Z</time>
					</trkpt>
					<trkpt lat="45.771570" lon="4.373820">
						<ele>525</ele>
						<time>2026-04-15T10:48:25Z</time>
					</trkpt>
					<trkpt lat="45.771620" lon="4.374000">
						<ele>524</ele>
						<time>2026-04-15T10:48:27Z</time>
					</trkpt>
					<trkpt lat="45.771680" lon="4.374100">
						<ele>524</ele>
						<time>2026-04-15T10:48:29Z</time>
					</trkpt>
					<trkpt lat="45.771770" lon="4.374170">
						<ele>524</ele>
						<time>2026-04-15T10:48:30Z</time>
					</trkpt>
					<trkpt lat="45.771860" lon="4.374210">
						<ele>524</ele>
						<time>2026-04-15T10:48:32Z</time>
					</trkpt>
					<trkpt lat="45.771950" lon="4.374240">
						<ele>524</ele>
						<time>2026-04-15T10:48:34Z</time>
					</trkpt>
					<trkpt lat="45.772110" lon="4.374330">
						<ele>523</ele>
						<time>2026-04-15T10:48:37Z</time>
					</trkpt>
					<trkpt lat="45.772360" lon="4.374490">
						<ele>523</ele>
						<time>2026-04-15T10:48:42Z</time>
					</trkpt>
					<trkpt lat="45.772410" lon="4.374520">
						<ele>523</ele>
						<time>2026-04-15T10:48:43Z</time>
					</trkpt>
					<trkpt lat="45.772390" lon="4.374210">
						<ele>523</ele>
						<time>2026-04-15T10:48:47Z</time>
					</trkpt>
					<trkpt lat="45.772410" lon="4.374060">
						<ele>523</ele>
						<time>2026-04-15T10:48:48Z</time>
					</trkpt>
					<trkpt lat="45.772440" lon="4.373920">
						<ele>522</ele>
						<time>2026-04-15T10:48:50Z</time>
					</trkpt>
					<trkpt lat="45.772460" lon="4.373870">
						<ele>522</ele>
						<time>2026-04-15T10:48:51Z</time>
					</trkpt>
					<trkpt lat="45.772540" lon="4.373780">
						<ele>522</ele>
						<time>2026-04-15T10:48:53Z</time>
					</trkpt>
					<trkpt lat="45.772570" lon="4.373740">
						<ele>523</ele>
						<time>2026-04-15T10:48:54Z</time>
					</trkpt>
					<trkpt lat="45.773090" lon="4.373210">
						<ele>525</ele>
						<time>2026-04-15T10:49:05Z</time>
					</trkpt>
					<trkpt lat="45.773540" lon="4.372750">
						<ele>528</ele>
						<time>2026-04-15T10:49:15Z</time>
					</trkpt>
					<trkpt lat="45.773650" lon="4.372610">
						<ele>529</ele>
						<time>2026-04-15T10:49:17Z</time>
					</trkpt>
					<trkpt lat="45.773660" lon="4.372570">
						<ele>529</ele>
						<time>2026-04-15T10:49:18Z</time>
					</trkpt>
					<trkpt lat="45.773690" lon="4.372450">
						<ele>529</ele>
						<time>2026-04-15T10:49:19Z</time>
					</trkpt>
					<trkpt lat="45.773700" lon="4.372290">
						<ele>530</ele>
						<time>2026-04-15T10:49:21Z</time>
					</trkpt>
					<trkpt lat="45.773670" lon="4.372100">
						<ele>531</ele>
						<time>2026-04-15T10:49:24Z</time>
					</trkpt>
					<trkpt lat="45.773610" lon="4.371960">
						<ele>532</ele>
						<time>2026-04-15T10:49:26Z</time>
					</trkpt>
					<trkpt lat="45.773580" lon="4.371930">
						<ele>533</ele>
						<time>2026-04-15T10:49:27Z</time>
					</trkpt>
					<trkpt lat="45.773500" lon="4.371870">
						<ele>533</ele>
						<time>2026-04-15T10:49:28Z</time>
					</trkpt>
					<trkpt lat="45.773400" lon="4.371830">
						<ele>533</ele>
						<time>2026-04-15T10:49:30Z</time>
					</trkpt>
					<trkpt lat="45.773270" lon="4.371820">
						<ele>533</ele>
						<time>2026-04-15T10:49:32Z</time>
					</trkpt>
					<trkpt lat="45.773070" lon="4.371840">
						<ele>531</ele>
						<time>2026-04-15T10:49:36Z</time>
					</trkpt>
					<trkpt lat="45.773030" lon="4.371840">
						<ele>531</ele>
						<time>2026-04-15T10:49:37Z</time>
					</trkpt>
					<trkpt lat="45.773010" lon="4.371830">
						<ele>531</ele>
						<time>2026-04-15T10:49:37Z</time>
					</trkpt>
					<trkpt lat="45.772940" lon="4.371770">
						<ele>531</ele>
						<time>2026-04-15T10:49:38Z</time>
					</trkpt>
					<trkpt lat="45.772850" lon="4.371620">
						<ele>531</ele>
						<time>2026-04-15T10:49:41Z</time>
					</trkpt>
					<trkpt lat="45.772800" lon="4.371470">
						<ele>532</ele>
						<time>2026-04-15T10:49:43Z</time>
					</trkpt>
					<trkpt lat="45.772830" lon="4.371120">
						<ele>534</ele>
						<time>2026-04-15T10:49:47Z</time>
					</trkpt>
					<trkpt lat="45.772870" lon="4.370400">
						<ele>539</ele>
						<time>2026-04-15T10:49:56Z</time>
					</trkpt>
					<trkpt lat="45.772770" lon="4.369860">
						<ele>541</ele>
						<time>2026-04-15T10:50:03Z</time>
					</trkpt>
					<trkpt lat="45.772640" lon="4.369540">
						<ele>542</ele>
						<time>2026-04-15T10:50:08Z</time>
					</trkpt>
					<trkpt lat="45.772570" lon="4.369360">
						<ele>542</ele>
						<time>2026-04-15T10:50:10Z</time>
					</trkpt>
					<trkpt lat="45.772390" lon="4.369040">
						<ele>541</ele>
						<time>2026-04-15T10:50:15Z</time>
					</trkpt>
					<trkpt lat="45.772430" lon="4.368800">
						<ele>542</ele>
						<time>2026-04-15T10:50:19Z</time>
					</trkpt>
					<trkpt lat="45.772570" lon="4.368430">
						<ele>544</ele>
						<time>2026-04-15T10:50:24Z</time>
					</trkpt>
					<trkpt lat="45.772660" lon="4.368320">
						<ele>544</ele>
						<time>2026-04-15T10:50:26Z</time>
					</trkpt>
					<trkpt lat="45.772750" lon="4.368250">
						<ele>545</ele>
						<time>2026-04-15T10:50:28Z</time>
					</trkpt>
					<trkpt lat="45.772830" lon="4.368190">
						<ele>545</ele>
						<time>2026-04-15T10:50:29Z</time>
					</trkpt>
					<trkpt lat="45.772880" lon="4.368040">
						<ele>544</ele>
						<time>2026-04-15T10:50:31Z</time>
					</trkpt>
					<trkpt lat="45.773080" lon="4.367560">
						<ele>542</ele>
						<time>2026-04-15T10:50:38Z</time>
					</trkpt>
					<trkpt lat="45.773220" lon="4.367160">
						<ele>543</ele>
						<time>2026-04-15T10:50:44Z</time>
					</trkpt>
					<trkpt lat="45.773370" lon="4.367150">
						<ele>545</ele>
						<time>2026-04-15T10:50:47Z</time>
					</trkpt>
					<trkpt lat="45.773500" lon="4.367010">
						<ele>546</ele>
						<time>2026-04-15T10:50:49Z</time>
					</trkpt>
					</trkseg>
				</trk>
			</gpx>